081219656060
081219656060
081219656060

Bukti Transaksi

Terimakasih kepada para pembeli dan pelanggan setia, demikian juga untuk para calon pelanggan, yang telah sudi mampir di website kami TanahAbangOnline.co.id.

jne bukti kirim
paket resi

Berikut kami tampilkan daftar Pembeli yang telah melakukan transaksi berbelanja ditempat kami yang ditandai dengan Nomor Resi Bukti Pengiriman JNE. Tujuan kami menampilkannya adalah untuk mempermudah Anda untuk mengikuti dan memantau perjalanan barang pesanan Anda. Dengan mengetahui nomor resi barang, Anda berarti memiliki bukti kepemilikan barang dan menghindarkan prasangka atas keberadaan toko online kami.

Bukti pengiriman yang tidak kami tampilkan (keterbatasan fasilitas tracking dari jasa layanan bersangkutan) : – Ekspedisi-ekspedisi Tanah Abang, Antar langsung (khusus Jakarta). – Reseller (pembelian oleh pihak ke-3) yang membutuhkan kerahasian identitas marketing. Bukti Pengiriman (No. Resi adalah tanda bukti untuk melihat bukti pengiriman).

bukti pengiriman

NO Tgl Kirim Nama Pembeli No Resi Kurir Kota Tujuan
1.976 25/07/2014 Dedeh CGKAP01164604514 JNE Bandung Kulon, Jawa Barat
1.975 25/07/2014 Badariah CGKAP01164633914 JNE Pontianak, Kalimantan Barat
1.974 25/07/2014 Susilowati 2331339870001 JNE Ponorogo, Jawa Tengah
1.973 25/07/2014 Ayu 2331339860002 JNE Semarang, Jawa Tengah
1.972 24/07/2014 Dini’s 2331339810007 JNE Karangasem, Bali
1.971 24/07/2014 Ayu W. CGKAP01159533014 JNE Malang, Jawa Timur
1.970 24/07/2014 Dwi A. CGKAP01159582014 JNE Jakarta
1.969 24/07/2014 Ihat CGKAP01159542814 JNE Serang, Banten
1.968 23/07/2014 Dewi 2331339460004 JNE Pemalang, Jawa Tengah
1.967 23/07/2014 Yenny 2331339450005 JNE Tigaraksa, Jawa Barat
1.966 23/07/2014 Icha 2331339410009 JNE Bogor, Jawa Barat
1.965 23/07/2014 Neneng 2331339390004 JNE Serang, Banten
1.964 23/07/2014 Jenab 2331339380005 JNE Cikarang, Jawa Barat
1.963 23/07/2014 Meliyani CGKAP01155704014 JNE Batam, Kep. Riau
1.962 23/07/2014 Desty CGKAP01155692614 JNE Sukabumi, Jawa Barat
1.961 23/07/2014 Regina CGKAP01155713814 JNE Batam, Kep. Riau
1.960 23/07/2014 Lenny CGKAP01155733414 JNE Serang, Banten
1.959 23/07/2014 Meyke CGKAP01155991414 JNE Jakarta
1.958 23/07/2014 Deshinta CGKAP01155653414 JNE Batang, Jawa Tengah
1.957 23/07/2014 Reni CGKAP01155673014 JNE Semarang Barat, Jawa Tengah
1.956 23/07/2014 Maria CGKAP01155981614 JNE Sidoarjo, Jawa Timur
1.955 22/07/2014 Yani CGKAP01154116514 JNE Bogor, Jawa Barat
1.954 22/07/2014 Iis CGKAP01154095314 JNE Depok, Jawa Barat
1.953 22/07/2014 Siti I. CGKAP01154075714 JNE Ciamis, Jawa Barat
1.952 22/07/2014 Rita CGKAP01154056114 JNE Rantau Prapat, Sumatera Utara
1.951 22/07/2014 Neny CGKAP01154036514 JNE Dumai, Riau
1.950 22/07/2014 Siti N. CGKAP01154126314 JNE Jakarta
1.949 22/07/2014 Ajeng CGKAP01154106714 JNE Bogor, Jawa Barat
1.948 22/07/2014 Danik CGKAP01154085514 JNE Sragen, Jawa Tengah
1.947 22/07/2014 Riska K. CGKAP01154065914 JNE Bandung, Jawa Barat
1.946 22/07/2014 Ranny CGKAP01154046314 JNE Cikarang, Jawa Barat
1.945 22/07/2014 Mega F. CGKAP01149094014 JNE Kedaton, Lampung
1.944 22/07/2014 Yuanita CGKAP01149105414 JNE Jakarta
1.943 22/07/2014 Desi V. CGKAP01149134814 JNE Purbalingga, Jawa Tengah
1.942 22/07/2014 Yeni CGKAP01149054814 JNE Cikarang, Jawa Barat
1.941 22/07/2014 Dwi E. CGKAP01149074414 JNE Tuban, Jawa Timur
1.940 21/07/2014 Vee 202006913824 DPEX Perak, Malaysia
1.939 21/07/2014 April 2331338400000 JNE Ciomas, Jawa Barat
1.938 21/07/2014 Gita 2331338480003 JNE Malang, Jawa Timur
1.937 21/07/2014 Dyah R. 2331338490002 JNE Mojoroto, Jawa Timur
1.936 21/07/2014 Diena 2331338500008 JNE Soreang, Jawa Barat
1.935 21/07/2014 Laiman 2331338510007 JNE Bandung, Jawa Barat
1.934 21/07/2014 Eka Y. 2331338630002 JNE Kota Agung, Lampung
1.933 21/07/2014 Desi V. 2331338640001 JNE Purbalingga, Jawa Tengah
1.932 21/07/2014 Ranti 2331338650000 JNE Yogyakarta
1.931 21/07/2014 Siti M. 2331338660009 JNE Curug, Banten
1.930 21/07/2014 Mega 2331338670008 JNE Serang, Banten
1.929 21/07/2014 Mega P. 2331338680007 JNE Salatiga, Jawa Tengah
1.928 21/07/2014 Niesice CGKAP01142963114 JNE Jakarta
1.927 21/07/2014 Amilia CGKAP01142943514 JNE Bekasi, Jawa Barat
1.926 21/07/2014 Selly CGKAP01142904314 JNE Karawang, Jawa Barat
1.925 21/07/2014 Intan CGKAP01142853714 JNE Garut, Jawa Barat
1.924 21/07/2014 Resty CGKAP01143027214 JNE Jakarta
1.923 21/07/2014 Ningtyas CGKAP01142982714 JNE Jakarta
1.922 21/07/2014 Nia CGKAP01142824314 JNE Depok, Jawa Barat
1.921 21/07/2014 Risma CGKAP01142793314 JNE Sukabumi, Jawa Barat
1.920 21/07/2014 Shanty CGKAP01142783514 JNE Pontianak, Kalimantan Barat
1.919 21/07/2014 Nina CGKAP01142763914 JNE Depok, Jawa Barat
1.918 21/07/2014 Erly CGKAP01142724714 JNE Karawaci, Jawa Barat
1.917 21/07/2014 Wita CGKAP01142705114 JNE Depok, Jawa Barat
1.916 20/07/2014 Galih CGKBS01495282414 JNE Depok, Jawa Barat
1.915 20/07/2014 Leny CGKBS01495313414 JNE Serang, Banten
1.914 20/07/2014 Ameliana CGKBS01495323214 JNE Cilodong, Jawa Barat
1.913 20/07/2014 Tiara CGKBS01495352614 JNE Bandung, Jawa Barat
1.912 20/07/2014 Siti A. CGKBS01495382014 JNE Samarinda Ulu, Klaimantan Timur
1.911 20/07/2014 Neneng CGKBS01495391814 JNE Serang, Banten
1.910 20/07/2014 Zia CGKBS01495403214 JNE Jakarta
1.909 20/07/2014 Army CGKBS01495413014 JNE Cimahi, Jawa Barat
1.908 20/07/2014 Leny CGKBS01495422814 JNE Batam, Kep. Riau
1.907 20/07/2014 Juli CGKBS01495432614 JNE Pangkalpinang, Bangka-belitung
1.906 20/07/2014 Pocket CGKBS01495491414 JNE Kuta, Bali
1.905 20/07/2014 Finitya CGKBS01495551814 JNE Bojonegoro, Jawa Timur
1.904 20/07/2014 Farah CGKBS01495561614 JNE Jakarta
1.903 20/07/2014 Nanik CGKBS01495571414 JNE Semarang, Jawa Tengah
1.902 20/07/2014 Warsini CGKBS01495581214 JNE Nganjuk, Jawa Timur
1.901 20/07/2014 Dini’s 2530557620003 JNE Karangasem, Bali
1.900 20/07/2014 Emiliyani 2530557590009 JNE Magelang, Jawa Tengah
1.899 20/07/2014 Een 2530557580000 JNE Jakarta
1.898 20/07/2014 Lily 2530557600005 JNE Cileungsi, Jawa Barat
1.897 20/07/2014 Tari 2530557610004 JNE Cikarang, Jawa Barat
1.896 20/07/2014 Nora 2530557710001 JNE Depok, Jawa Barat
1.895 20/07/2014 Eva 2530557690006 JNE Bekasi, Jawa Barat
1.894 20/07/2014 Iis 2530557810008 JNE Depok, Jawa Barat
1.893 20/07/2014 Dea 2530557800009 JNE Ngawi, Jawa tengah
1.892 20/07/2014 Hera 2530557780004 JNE Ulee Kareng, Aceh
1.891 20/07/2014 Dita 2530557770005 JNE Sako, Sumatera Selatan
1.890 20/07/2014 Tuniasih 2530557750007 JNE Semarang Barat, Jawa Tengah
1.889 20/07/2014 Hanik 2530557740008 JNE Jakarta
1.888 20/07/2014 Shinta 2530557670008 JNE Bekasi, Jawa Barat
1.887 20/07/2014 Ika 2530557650000 JNE Cikarang, Jawa Barat
1.886 19/06/2014 Yati 202007040572 DPEX Singapore
1.885 19/06/2014 Nurhazreen 202007040583 DPEX Serawak, Malaysia
1.884 19/07/2014 Irma CGKAP01138752514 JNE Purbolinggo, Jawa Tengah
1.883 19/07/2014 Dwi CGKAP01138732914 JNE Cilacap, Jawa Tengah
1.882 19/07/2014 Sumardi CGKAP01138283914 JNE Tangerang, Banten
1.881 19/07/2014 Galih CGKAP01138264314 JNE Depok, Jawa Barat
1.880 19/07/2014 Cut L. CGKAP01138254514 JNE Lhoksukon, Aceh
1.879 19/07/2014 Dewi K. CGKAP01138225114 JNE Pemalang, Jawa Tengah
1.878 19/07/2014 Yetty CGKAP01138215314 JNE Bandung, Jawa Barat
1.877 19/07/2014 Radiyeh CGKAP0113818314 JNE Pontianak, Kalimantan Barat
1.876 19/07/2014 Rita CGKAP01138164714 JNE Batam, Kep. Riau
1.875 19/07/2014 Lia CGKAP01138145114 JNE Banyuwangi, Jawa Timur
1.874 19/07/2014 Susilowati CGKAP01138115714 JNE Ponorogo, Jawa Tengah
1.873 19/07/2014 Eva CGKAP01138105914 JNE Cirebon, Jawa Barat
1.872 18/07/2014 Eka Y. CGK9J00452274614 JNE Kota Agung, Lampung
1.871 18/07/2014 Guruh CGK9J00452284414 JNE Jakarta
1.870 18/07/2014 Galih CGK9J00449403314 JNE Depok, Jawa Barat
1.869 18/07/2014 Dyah CGKAP01132195914 JNE Kediri, Jawa Timur
1.868 18/07/2014 Mirza CGKAP01132186114 JNE Bandung, Jawa Barat
1.867 18/07/2014 Fatmawati CGKAP01132176314 JNE Pontianak, Kalimantan Barat
1.866 18/07/2014 Yuanita CGKAP01132166514 JNE Jakarta
1.865 18/07/2014 Santoso CGKAP01132156714 JNE Cikarang, Jawa Barat
1.864 18/07/2014 Ameliana CGKAP01136653514 JNE Depok, Jawa Barat
1.863 18/07/2014 Galih CGKAP01136026514 JNE Depok, Jawa Barat
1.862 18/07/2014 Ida CGKAP01136971914 JNE Batam, Kep. Riau
1.861 18/07/2014 Ikhsan CGKAP01137006614 JNE Malang, Jawa Timur
1.860 18/07/2014 Djumaning CGKAP01136335114 JNE Balikpapan, Kalimantan Timur
1.859 18/07/2014 Dwi CGKAP01136305714 JNE Padang, Sumatera Barat
1.858 18/07/2014 Nia CGKAP01136284514 JNE Jakarta
1.857 18/07/2014 Linda CGKAP01136274714 JNE Denpasar, Bali
1.856 18/07/2014 Jenab CGKAP01136255114 JNE Cikarang, Jawa Barat
1.855 18/07/2014 Leliyana CGKAP01136235514 JNE Garut, Jawa Barat
1.854 18/07/2014 Linda CGKAP01136206114 JNE Denpasar, Bali
1.853 18/07/2014 Tati CGKAP01137026214 JNE Mataram, N T B
1.852 17/07/2014 Tantri 2331337610005 JNE Semarang, Jawa Tengah
1.851 17/07/2014 Galih 2331337620004 JNE Depok, Jawa Barat
1.850 17/07/2014 Jihan CGKAP01131317014 JNE Jakarta
1.849 17/07/2014 Vidia CGKAP01131196214 JNE Mentok, Bangka-Belitung
1.848 17/07/2014 Riska CGKAP01131186414 JNE Padalarang, Jawa Barat
1.847 17/07/2014 Yulifah CGKAP01131157014 JNE Mojokerto, Jawa Tengah
1.846 17/07/2014 Eka CGKAP01131137414 JNE Cipanas, Jawa Barat
1.845 17/07/2014 Neneng CGKAP01131127614 JNE Serang, Banten
1.844 17/07/2014 Sukma CGKAP01131108014 JNE Tigaraksa, Banten
1.843 17/07/2014 Aris CGKAP01131086814 JNE Semarang, Jawa Tengah
1.842 17/07/2014 Maria CGKAP01131077014 JNE Samarinda, Kalimantan Timur
1.841 17/07/2014 Susan CGKAP01130973714 JNE Bekasi, Jawa Barat
1.840 17/07/2014 Imah CGKAP01130983514 JNE Jakarta
1.839 17/07/2014 Gedson CGKAP01131008414 JNE Medan, Sumatera Utara
1.838 17/07/2014 Eunike CGKAP01131028014 JNE Banyumanik, Jawa Tengah
1.837 17/07/2014 Aimatul CGKAP01131057414 JNE Kediri, Jawa Timur
1.836 17/07/2014 Herlien CGKAP01131266414 JNE Cileungsi, Jawa Barat
1.835 17/07/2014 Siti N CGKAP01130127914 JNE Jakarta
1.834 17/07/2014 Natasha CGKAP01130506714 JNE Jakarta
1.833 17/07/2014 Ajeng CGKAP01130366314 JNE Bogor, Jawa Barat
1.832 17/07/2014 Djumaming CGKAP01130327114 JNE Balikpapan, Kalimantan Timur
1.831 17/07/2014 Yetty CGKAP01130296114 JNE Bandung
1.830 17/07/2014 Dede CGKAP01130256914 JNE Jakarta
1.829 17/07/2014 Riska CGKAP01130217714 JNE Padalarang, Jawa Barat
1.828 17/07/2014 Uweng CGKAP01130196514 JNE Palembang, Sumatera Selatan
1.827 17/07/2014 Desty CGKAP01130167114 JNE Sukabumi, Jawa Barat
1.826 16/07/2014 Natasya CGKAP01125952814 JNE Jakarta
1.825 16/07/2014 Azzahriana CGKAP01125933214 JNE Makassar, Sulawesi Selatan
1.824 16/07/2014 Nabil CGKAP01125903814 JNE Jakarta
1.823 16/07/2014 Iis CGKAP01125863014 JNE Depok, Jawa Barat
1.822 16/07/2014 Ina CGKAP01125823814 JNE Bandung, Jawa Barat
1.821 16/07/2014 Rossy CGKAP01125804214 JNE Jakarta
1.820 16/07/2014 Anang CGKAP01125792814 JNE Cikarang, Banten
1.819 16/07/2014 Siti CGKAP01125763414 JNE Cikarang, Banten
1.818 16/07/2014 Emmi CGKAP01125734014 JNE Sumedang, Jawa Barat
1.817 16/07/2014 Devi CGKAP01125714414 JNE Ternate, Maluku Utara
1.816 16/07/2014 Erika CGKAP01125693214 JNE Jakarta
1.815 16/07/2014 Dini;s CGKAP01125663814 JNE Karangasem, Bali
1.814 16/07/2014 Rita CGKAP01125624614 JNE Garut, Jawa Barat
1.813 16/07/2014 Fenni CGKAP01125605014 JNE Jakarta
1.812 16/07/2014 Galih CGKAP01122494914 JNE Depok, Jawa Barat
1.811 16/07/2014 Maelanita CGKAP01126026714 JNE Cileungsi, Jawa Barat
1.810 16/07/2014 Arieta CGKAP01126235714 JNE Jombang, Jawa Timur
1.809 16/07/2014 Novita CGKAP01126225914 JNE Pekanbaru, Riau
1.808 16/07/2014 Yuli CGKAP01120794314 JNE Karawaci, Banteng
1.807 16/07/2014 Linda CGKAP01120784514 JNE Jakarta
1.806 16/07/2014 Diah CGKAP01120764914 JNE Purworejo, Jawa tengah
1.805 16/07/2014 Desy CGKAP01120755114 JNE Sungaliat, Bangka Belitung
1.804 16/07/2014 Devita CGKAP01120735514 JNE Jombang, Jawa Timur
1.803 16/07/2014 Nurul CGKAP01120725714 JNE Tigaraksa, Banten
1.802 16/07/2014 Mega CGKAP01120715914 JNE Kedaton, Lampung
1.801 15/07/2014 Dedeh CGKAP01119553414 JNE Cisarua, Jawa Barat
1.800 15/07/2014 Tefi CGKAP01119514214 JNE Medan, Sumatera Utara
1.799 15/07/2014 Nia CGKAP01118891714 JNE Depok, Jawa Barat
1.798 15/07/2014 Umi CGKAP01118922714 JNE Cilegon, Banten
1.797 15/07/2014 Hartono CGKAP01118961914 JNE Muara Teweh, Kalimantan Tengah
1.796 15/07/2014 Sanni CGKAP01118991314 JNE Surabaya, Jawa Timur
1.795 15/07/2014 Leti CGKAP01119045614 JNE Tasikmalaya, Jawa Barat
1.794 15/07/2014 Dewi CGKAP01119075014 JNE Pemalang, Jawa Tengah
1.793 15/07/2014 Ratna CGKAP01119115814 JNE Kertosono, Jawa Timur
1.792 15/07/2014 Fita CGKAP01119155014 JNE Magelang, Jawa Tengah
1.791 15/07/2014 Erna CGKAP01119194214 JNE Cisoka, Banten
1.790 15/07/2014 Yessica CGKAP01119254614 JNE Ponorogo, Jawa Tengah
1.789 15/07/2014 Fitriyana CGKAP01119284014 JNE Mojokerto, Jawa Tengah
1.788 15/07/2014 Mirna CGKAP01119473414 JNE Bandar Lampung, Lampung
1.787 15/07/2014 Nadia CGKAP01119424414 JNE Sukabumi, Jawa Barat
1.786 15/07/2014 Sriyatun CGKAP01119364014 JNE Tulungagung, Jawa Timur
1.785 15/07/2014 Wawan CGKAP01119315014 JNE Tallo, Sulawesi Selatan
1.784 15/07/2014 Lita CGKAP01114814514 JNE Jakarta
1.783 15/07/2014 Galery CGKAP01114793314 JNE Bogor, Jawa Barat
1.782 15/07/2014 Vinny CGKAP01113992814 JNE Kota Baru, Jambi
1.781 15/07/2014 Regina CGKAP01114146714 JNE Batam, Kep. Riau
1.780 15/07/2014 Siti CGKAP01114156514 JNE Bojong Sari, Jawa Barat
1.779 15/07/2014 Siti CGKAP01114166314 JNE Jatiluhur, Jawa Barat
1.778 15/07/2014 Rahmiyana CGKAP01114185914 JNE Tarakan, Kalimantan Utara
1.777 15/07/2014 Tyas CGKAP01114207114 JNE Magetan, Jawa Tengah
1.776 15/07/2014 Geulis CGKAP01114216914 JNE Pontianak, Kalimantan Barat
1.775 15/07/2014 Nur CGKAP01114256114 JNE Salatiga, Jawa Tengah
1.774 15/07/2014 Anna CGKAP01114265914 JNE Depok, Yogyakarta
1.773 15/07/2014 Adriani CGKAP01114285514 JNE Semarang, Jawa Tengah
1.772 15/07/2014 Rismayani CGKAP01114295314 JNE Mamuju, Sulawesi Barat
1.771 15/07/2014 Atikah CGKAP01114336114 JNE Pamulang, Banten
1.770 15/07/2014 Anggra CGKAP01114545114 JNE Surabaya, Jawa Timur
1.769 15/07/2014 Koko CGKAP01114714914 JNE Pamulang, Banten
1.768 15/07/2014 Wiwin CGKAP01114734514 JNE Depok, Jawa Barat
1.767 15/07/2014 Iis CGKAP01114773714 JNE Depok, Jawa Barat
1.766 15/07/2014 Rita CGKAP01114783514 JNE Rantau Prapat, Sumatera Utara
1.765 14/07/2014 Galih 2331336670000 JNE Depok, Jawa Barat
1.764 14/07/2014 Dharma CGKAP01112864114 JNE Wonosobo, Jawa Tengah
1.763 14/07/2014 Siti CGKAP01112844514 JNE Jakarta
1.762 14/07/2014 Sri CGKAP01112805314 JNE Jakarta
1.761 14/07/2014 Ajat CGKAP01112764514 JNE Tapos, Jawa Barat
1.760 14/07/2014 Decan CGKAP01112735114 JNE Pelabuhan Ratu, Jawa Barat
1.759 14/07/2014 Atiek CGKAP01112694314 JNE Jakarta
1.758 14/07/2014 Susanawati CGKAP01112664914 JNE Jakarta
1.757 14/07/2014 Dwi CGKAP01112645314 JNE Cilacap, Jawa Tengah
1.756 14/07/2014 Titah CGKAP01112615914 JNE Yogyakarta
1.755 14/07/2014 Ana CGKAP01112555514 JNE Bogor, Jawa Barat
1.754 14/07/2014 Dede CGKAP01112526114 JNE Jakarta
1.753 14/07/2014 Lina CGKAP01112506514 JNE Sumedang, Jawa Barat
1.752 14/07/2014 Ocha CGKAP01112475514 JNE Lebak Bandung, Jambi
1.751 14/07/2014 Suwita CGKAP01112446114 JNE Magetan, Jawa Timur
1.750 14/07/2014 Nia CGKAP01112416714 JNE Tapos, Jawa Barat
1.749 14/07/2014 Nurasih CGKAP01112375914 JNE Tigaraksa, Banten
1.748 13/07/2014 Tiur CGKBP02253592914 JNE Batam, Kep. Riau
1.747 13/07/2014 Mareta CGKBP02253614114 JNE Palembang, Sumatera Selatan
1.746 13/07/2014 Sri CGKBP02253623914 JNE Batam, Kep. Riau
1.745 13/07/2014 Ika CGKBP02253633714 JNE Pangkal Pinang, Bangka Belitung
1.744 13/07/2014 Maelanita CGKBP02253643514 JNE Cileungsi, Jawa Barat
1.743 13/07/2014 Fitri CGKBP02253653314 JNE Kuningan, Jawa Barat
1.742 12/07/2014 Mega CGKAP01105216814 JNE Serang, Banten
1.741 12/07/2014 Shanty CGKAP01105336014 JNE Jakarta
1.740 12/07/2014 Margaretha CGKAP01105316414 JNE Jombang, Jawa Timur
1.739 12/07/2014 Agus CGKAP01105295214 JNE Bandung, Jawa Barat
1.738 12/07/2014 Ocha CGKAP01105275614 JNE Lebak Bandung, Jambi
1.737 12/07/2014 Emmi CGKAP01105265814 JNE Sumedang, Jawa Barat
1.736 12/07/2014 Evita CGKAP01105226614 JNE Jombang, Jawa Timur
1.735 11/06/2014 Yati 202006879185 DPEX Singapore
1.734 11/07/2014 Sony CGKAP01102606314 JNE Jakarta
1.733 11/07/2014 Mirna CGKAP01102407114 JNE Bandar Lampung, Lampung
1.732 11/07/2014 Puji CGKAP01102426714 JNE Kendal, Jawa Tengah
1.731 11/07/2014 Edwin CGKAP01102436514 JNE Brebes, Jawa Tengah
1.730 11/07/2014 Natasya CGKAP01102446314 JNE Jakarta
1.729 11/07/2014 Retno CGKAP01102485514 JNE Jakarta
1.728 11/07/2014 Omar CGKAP01102555714 JNE Pontianak, Kalimantan Barat
1.727 11/07/2014 Kaella CGKAP01102395714 JNE Losari, Jawa Barat
1.726 10/07/2014 Desi CGK9J00440175814 JNE Purbalingga, Jawa Tengah
1.725 10/07/2014 Khusnul CGKAP01097214814 JNE Sidoarjo, Jawa Timur
1.724 10/07/2014 Ulfa CGKAP01097732414 JNE Jakarta
1.723 10/07/2014 Rini CGKAP01097691614 JNE Bandung, Jawa Barat
1.722 10/07/2014 Risto CGKAP01097652414 JNE Boyolali, Jawa Tengah
1.721 10/07/2014 Riani CGKAP01097623014 JNE Bandung, Jawa Barat
1.720 10/07/2014 Dhiena CGKAP01097582214 JNE Lubuk Linggau, Sumatera Barat
1.719 10/07/2014 Yessica CGKAP01097543014 JNE Ponorogo, Jawa Tengah
1.718 10/07/2014 Merry CGKAP01097492414 JNE Surabaya, Jawa Timur
1.717 10/07/2014 Melanti CGKAP01097472814 JNE Indramayu, Jawa Barat
1.716 10/07/2014 TPR CGKAP01097433614 JNE Serang, Banten
1.715 10/07/2014 Desty CGKAP01097414014 JNE Sukabumi, Jawa Barat
1.714 10/07/2014 Supardi CGKAP01097373214 JNE Klaten, Jawa Tengah
1.713 10/07/2014 Sri CGKAP01097353614 JNE Sungai Liat, Bangka Belitung
1.712 10/07/2014 Taufik CGKAP01097314414 JNE Purworejo, Jawa Tengah
1.711 10/07/2014 Juwita CGKAP01097273614 JNE Kediri, Jawa Timur
1.710 10/07/2014 Siwi CGKAP01097234414 JNE Semarang, Jawa Tengah
1.709 09/07/2014 Anastasia CGK9J00438581814 JNE Jakarta
1.708 09/07/2014 Eka CGKAP01091494214 JNE Tegal, Jawa Tengah
1.707 09/07/2014 Diah CGKAP01091406014 JNE Purworejo, Jawa Tengah
1.706 09/07/2014 Melanti CGKAP01091425614 JNE Indramayu, Jawa Barat
1.705 09/07/2014 Turniasih CGKAP01091435414 JNE Semarang, Jawa Tengah
1.704 09/07/2014 Mardiana CGKAP01091394614 JNE Bukit Tinggi, Sumatera Barat
1.703 09/07/2014 Dhama CGKAP01091326014 JNE Wonosobo, Jawa Tengah
1.702 09/07/2014 Osi CGKAP01091345614 JNE Batam, Kep. Riau
1.701 09/07/2014 Yanti CGKAP01091365214 JNE Boyolali, Jawa Tengah
1.700 09/07/2014 Agustina CGKAP01090584314 JNE Denpasar, Bali
1.699 09/07/2014 Desty CGKAP01090605514 JNE Sukabumi, Jawa Barat
1.698 09/07/2014 Utami CGKAP01090615314 JNE Balaraja, Banten
1.697 09/07/2014 Kartika CGKAP01090625114 JNE Cikupa, Banten
1.696 09/07/2014 Syaiful CGKAP01090634914 JNE Tuban, Jawa Timur
1.695 09/07/2014 Mutiara CGKAP01090644714 JNE Solo, Jawa Tengah
1.694 09/07/2014 Finitya CGKAP01090654514 JNE Cibinong, Jawa Barat
1.693 09/07/2014 Alvina CGKAP01090664314 JNE Jakarta
1.692 09/07/2014 Mia CGKAP01090674114 JNE Bekasi, Jawa Barat
1.691 09/07/2014 Nawawi CGKAP01090683914 JNE Solo, Jawa tengah
1.690 09/07/2014 Ayu CGKAP01090594114 JNE Salatiga, Jawa tengah
1.689 08/07/2014 Ina CGKAP01090355714 JNE Bandung, Jawa Barat
1.688 08/07/2014 Mira CGKAP01090345914 JNE Jakarta
1.697 08/07/2014 Chesa CGKAP01090326314 JNE Denpasar, Bali
1.686 08/07/2014 Uci CGKAP01090316514 JNE Tanjung Bonai, Sumatera Barat
1.685 08/07/2014 Novalita CGKAP0109025314 JNE Makassar, Sulawesi Selatan
1.684 08/07/2014 Lilis CGKAP0190285514 JNE Tasikmalaya, Jawa barat
1.683 08/07/2014 Yandi CGKAP0190275714 JNE Ciputat, Banten
1.682 08/07/2014 Meita CGKAP0190256114 JNE Ciputat, Banten
1.681 08/07/2014 Ratna CGKAP01060246314 JNE Palembang, Sumatera Selatan
1.680 08/07/2014 Melanti CGKAP01085106214 JNE Indramayu, Jawa Barat
1.679 08/07/2014 Musy CGKAP01084952314 JNE Jakarta
1.678 08/07/2014 Yusnina CGKAP01084932714 JNE Ilir Timur I, Sumatera Selatan
1.677 08/07/2014 Shinta CGKAP01084903314 JNE Cikarang, Jawa Barat
1.676 08/07/2014 Lini CGKAP01084862514 JNE Tambun, Jawa Barat
1.675 08/07/2014 Mira CGKAP01084623314 JNE Bandar Lampung, Lampung
1.674 08/07/2014 Mira CGKAP01084803714 JNE Jakarta
1.673 08/07/2014 Tantri CGKAP01084772714 JNE Semarang, Jawa Tengah
1.672 08/07/2014 Sukma CGKAP01084743314 JNE Tigaraksa, Banten
1.671 08/07/2014 Dhiena CGKAP01084713914 JNE Lubuk Linggau, Sumatera Barat
1.670 08/07/2014 Riska CGKAP01084704114 JNE Purwakarta, Jawa Barat
1.669 08/07/2014 Martina CGKAP01084682914 JNE Serang, Banten
1.668 08/07/2014 Mega CGKAP01084673114 JNE Batang, Jawa Tengah
1.667 08/07/2014 Aceng CGKAP01084643714 JNE Jakarta
1.666 08/07/2014 Emil CGKAP01084633914 JNE Magelang, Jawa Tengah
1.665 08/07/2014 Bagus CGKAP01084593114 JNE Surabaya, Jawa Timur
1.664 08/07/2014 Mega CGKAP01084583314 JNE Kedaton, Lampung
1.663 08/07/2014 Fitri CGKAP01084553914 JNE Samarinda, Kalimantan Timur
1.662 08/07/2014 Ema CGKAP01084913114 JNE Kuningan, Jawa Barat
1.661 08/07/2014 Rhindy CGKAP01084882114 JNE Padang, Sumatera Barat
1.660 08/07/2014 Dhama CGKAP01084852714 JNE Wonosobo, Jawa Tengah
1.659 08/07/2014 Siti CGKAP01084653514 JNE Jakarta
1.658 08/07/2014 Putri CGKAP01084624114 JNE Cibinong, Jawa Barat
1.657 06/07/2014 Ike CGKBP02208922214 JNE Jakarta
1.656 06/07/2014 Gaia CGKBP02208912414 JNE Jakarta
1.655 06/07/2014 Ludfatun CGKBP02208902614 JNE Semarang, Jawa Tengah
1.654 06/07/2014 Kartika CGKBP02208891214 JNE Tangerang, Banten
1.653 06/07/2014 Yopi CGKBP02208881414 JNE Batam, Kep. Riau
1.652 06/07/2014 Euis CGKBP02208871614 JNE Jakarta
1.651 06/07/2014 Maria CGKBP02208861814 JNE Bandung, Jawa Barat
1.650 06/07/2014 Titah CGKBP02208852014 JNE Yogyakarta
1.649 06/07/2014 Nurlatifah CGKBP02208842214 JNE Cimahi, Jawa Barat
1.648 06/07/2014 Decan CGKBP02208832414 JNE Pelabuhan Ratu, Jawa Barat
1.647 05/07/2014 Fita CGKAP01078443514 JNE Magelang Selatan, Jawa Timur
1.646 05/07/2014 Sari CGKAP01078492514 JNE Padangpanjang, Sumatera Barat
1.645 05/07/2014 Rina CGKAP01078482714 JNE Bekasi, Jawa Barat
1.644 05/07/2014 Furi CGKAP01078453314 JNE Kedaton, Lampung
1.643 04/07/2014 Nurani CGKAH01466651714 JNE Gunung Putri, Jawa Barat
1.642 04/07/2014 Mega CGKAH01466641914 JNE Jakarta
1.641 04/07/2014 Siti CGKAH01466661514 JNE Ungaran, Jawa Tengah
1.640 04/07/2014 Hayat CGKAH01466671314 JNE Purbalingga, Jawa Tengah
1.639 04/07/2014 Sri CGKAP01076135514 JNE Banda Aceh, Aceh
1.638 04/07/2014 Tatu CGKAP01075862414 JNE Jakarta
1.637 04/07/2014 Nita CGKAP01075962014 JNE Jakarta
1.636 04/07/2014 Tri CGKAP01075903214 JNE Bekasi, Jawa Barat
1.635 04/07/2014 Iteu CGKAP01076215514 JNE Gunung Sindur, Jawa Barat
1.634 04/07/2014 Yuliati CGKAP01076244914 JNE Jakarta
1.633 04/07/2014 Yulianti CGKAP01076264514 JNE Tigaraksa, Banten
1.632 04/07/2014 Desynta CGKAP01076274314 JNE Denpasar, Bali
1.631 04/07/2014 Ida CGKAP01076055514 JNE Sidoarjo, Jawa Timur
1.630 04/07/2014 Yunita CGKAP01076084914 JNE Jember, Jawa Timur
1.629 04/07/2014 Midas CGKAP01076026114 JNE Tigaraksa, Banten
1.628 04/07/2014 Lina CGKAP01075991414 JNE Sumedang, Jawa Barat
1.627 04/07/2014 Niken CGKAP01076184514 JNE Klaten, Jawa Tengah
1.626 04/07/2014 Selviana CGKAP01076115914 JNE Tangerang, Banten
1.625 03/07/2014 Izatul 202006848610 DPEX Kuala Lumpur, Malaysia
1.624 03/07/2014 Mariatul CGKAP01066981514 JNE Makassar, Sulawesi Selatan
1.623 03/07/2014 Shantry CGKAP01067016214 JNE Palembang, Sumatera Selatan
1.622 03/07/2014 Yuliati CGKAP01067006414 JNE Jakarta
1.621 02/07/2014 Budi CGKAP01065225814 JNE Sukmajaya, Jawa Barat
1.620 02/07/2014 Emily CGKAP01065194814 JNE Jakarta
1.619 02/07/2014 Nur CGKAP01065185014 JNE Ciledug, Banten
1.618 02/07/2014 Sovi CGKAP01065155614 JNE Garut, Jawa Barat
1.617 02/07/2014 Aimatul CGKAP01065434814 JNE Kediri, Jawa Timur
1.616 02/07/2014 Yetty CGKAP01065415214 JNE Bandung, Jawa Barat
1.615 02/07/2014 Sella CGKAP01065374414 JNE Jakarta
1.614 02/07/2014 Ela CGKAP01065354814 JNE Jakarta
1.613 02/07/2014 Anytha CGKAP01065305814 JNE Jakarta
1.612 02/07/2014 Yuanita CGKAP01065284614 JNE Jakarta
1.611 02/07/2014 Siti CGKAP01065265014 JNE Bojongsari, Jawa Barat
1.610 02/07/2014 Ida CGKAP01065245414 JNE Cilacap, Jawa Tengah
1.609 01/07/2014 Irma 13594028062 POS Kotabumi, Lampung
1.608 01/07/2014 Ida CGKAP01060207714 JNE Tambun, Jawa Barat
1.607 01/07/2014 Aisah CGKAP01060217514 JNE Surakarta, Jawa Tengah
1.606 01/07/2014 Anna CGKAP01060237114 JNE Purwokerto, Jawa Tengah
1.605 01/07/2014 Dewi CGKAP01060246914 JNE Sawangan, Jawa Barat
1.604 01/07/2014 Prita CGKAP01060266514 JNE Sleman, Yogyakarta
1.603 01/07/2014 Ajat CGKAP01060356314 JNE Leuwinanggung, Jawa Barat
1.602 01/07/2014 Iis CGKAP01060307314 JNE Depok, Jawa Barat
1.601 01/07/2014 Dewi CGKAP01060385714 JNE Salatiga, Jawa Tengah
1.600 01/07/2014 Elis CGKAP01060416714 JNE Jakarta
1.599 01/07/2014 Anisa CGKAP01060436314 JNE Bekasi, Jawa Barat
1.598 30/06/2014 Siti CGKAP01054673714 JNE JBanyumas, Jawa Tengah
1.597 30/06/2014 Elly CGKAP01054663914 JNE Bekasi, Jawa Barat
1.596 30/06/2014 Kahfi CGKAP01054634514 JNE Singkawang, Kalimantan Barat
1.595 30/06/2014 Epah CGKAP01054583914 JNE Cikupa, Banten
1.594 30/06/2014 Nurul CGKAP01054544714 JNE Ampenan, N T B
1.593 30/06/2014 Fitri CGKAP01054505514 JNE Jakarta
1.592 30/06/2014 Army CGKAP01054474514 JNE Bandung, Jawa Barat
1.591 30/06/2014 Herwan CGKAP01054435314 JNE Serang, Banten
1.590 30/06/2014 Siti CGKAP01054394514 JNE Jakarta
1.589 30/06/2014 Tri CGKAP01054355314 JNE Bekasi, Jawa Barat
1.588 30/06/2014 Yuanita CGKAP01054325914 JNE Jakarta
1.587 29/06/2014 Ninung CGKBP02166125214 JNE Bogor, Jawa Barat
1.586 29/06/2014 Army CGKBP02166135014 JNE Bandung, Jawa Barat
1.585 29/06/2014 Yandi CGKBP02166144814 JNE Tigaraksa, Banten
1.584 29/06/2014 Bagus CGKBP02166154614 JNE Surabaya, Jawa Timur
1.583 29/06/2014 Ika CGKBP02166164414 JNE Cilacap, Jawa Tengah
1.582 28/06/2014 Atikah 2486286440002 JNE Purwakarta, Jawa Barat
1.581 28/06/2014 Dida 2486286450001 JNE Kudus, Jawa Tengah
1.580 28/06/2014 Diyah 2486286460000 JNE Cirebon, Jawa Barat
1.579 28/06/2014 Lilik 2486286470009 JNE Nusa Dua, Bali
1.578 28/06/2014 Haeron 2486286480008 JNE Jakarta
1.577 28/06/2014 Nur 2486286490007 JNE Cikarang, Jawa Barat
1.576 28/06/2014 Eny 2486286500003 JNE Trenggalek, Jawa Timur
1.575 27/06/2014 Santi 13595356165 POS Denpasar, Bali
1.574 27/06/2014 Ayu CGKAP01045972414 JNE Metro, Lampung
1.573 27/06/2014 Ilmiawati CGKAP01045943014 JNE Makassar, Sulawesi Selatan
1.572 27/06/2014 Laily CGKAP01045913614 JNE Sidoarjo, Jawa Timur
1.571 27/06/2014 Sekaring CGKAP01045892414 JNE Malang, Jawa Timur
1.570 27/06/2014 Iis CGKAP01045833614 JNE Depok, Jawa Barat
1.569 27/06/2014 Yandi CGKAP01045804214 JNE Tigaraksa, Banten
1.568 27/06/2014 Ida CGKAP01045734014 JNE Jakarta
1.567 27/06/2014 Ningsih CGKAP01045693214 JNE Gresik, Jawa Timur
1.566 26/06/2014 Sinta CGKAP01035982414 JNE Gunung Putri, Jawa Barat
1.565 26/06/2014 Elis CGKAP01036036714 JNE Jakarta
1.564 26/06/2014 Mega CGKAP01036126514 JNE Serang, Banten
1.563 26/06/2014 Rika CGKAP01039763614 JNE Kemiling, Lampung
1.562 26/06/2014 Yusnelita CGKAP01035843614 JNE Serang, Banten
1.561 26/06/2014 Ulfah CGKAP01035873014 JNE Bekasi, Jawa Barat
1.560 26/06/2014 Hani CGKAP01035923614 JNE Soreang, Jawa Barat
1.559 26/06/2014 Iis CGKAP01035962814 JNE Depok, Jawa Barat
1.358 24/06/2014 Abibah 202006875862 DPEX Malaysia
1.557 24/06/2014 Risdiyanti 13594556307 POS Bandar Lampung, Lampung
1.556 24/06/2014 Rosita CGKAP01028514714 JNE Palembang, Sumatera Selatan
1.555 24/06/2014 Nita CGKAP01028504914 JNE Sidoarjo, Jawa Timur
1.554 24/06/2014 Titah CGKAP01028493514 JNE Yogyakarta
1.553 24/06/2014 Mega CGK1M00244265214 JNE Kedaton, Lampung
1.552 24/06/2014 Mira CGK1M00244255414 JNE Jakarta
1.551 23/06/2014 Geulis CGKAP01027614614 JNE Pontianak, Kalimantan Barat
1.550 23/06/2014 Sandra CGKAP01027653814 JNE Jakarta
1.549 23/06/2014 Okta CGKAP01027733814 JNE Purbalingga, Jawa Tengah
1.548 23/06/2014 Yulianti CGKAP01027962414 JNE Tigaraksa, Banten
1.547 23/06/2014 Ayu CGKAP01028016714 JNE Padang, Sumatera Barat
1.546 23/06/2014 Siti CGKAP01027972214 JNE Jakarta
1.545 23/06/2014 Tari CGKAP01027804014 JNE Cimanggis, Jawa Barat
1.544 23/06/2014 Laily CGKAP01027773014 JNE Sidoarjo, Jawa Timur
1.543 23/06/2014 Lelyana CGKAP01027833414 JNE Garut, Jawa Barat
1.542 23/06/2014 Mega CGKAP01027843214 JNE Serang, Banten
1.541 23/06/2014 Desy CGKAP01027913414 JNE Jakarta
1.540 23/06/2014 Omar CGKAP01027982014 JNE Pontianak, Kalimantan Barat
1.539 19/06/2014 Nurhazreen 202006873725 DPEX Selangor, Malaysia
1.538 19/06/2014 Bagus CGKAP01016236314 JNE Surabaya, Jawa Timur
1.537 19/06/2014 Yulianti CGKAP01016216714 JNE Tangerang, Banten
1.536 19/06/2014 Desy CGKAP01016425714 JNE Jakarta
1.535 19/06/2014 Laily CGKAP01016406114 JNE Sidoarjo, Jawa Timur
1.534 19/06/2014 Aniez CGKAP01016375114 JNE Bekasi, Jawa Barat
1.533 19/06/2014 Ika CGKAP01016345714 JNE Yogyakarta
1.532 19/06/2014 Diah CGKAP01016326114 JNE Medan, Sumatera Utara
1.531 19/06/2014 Selviana CGKAP01016316314 JNE Tangerang, Banten
1.530 19/06/2014 Andika CGKAP01016265714 JNE Jakarta
1.529 19/06/2014 Rismayanti CGKAP01016285314 JNE Cikarang, Jawa Barat
1.528 18/06/2014 Mega CGKAP01007804414 JNE Bandar Lampung, Lampung
1.527 18/06/2014 Idris CGKAP01011456614 JNE Bekasi, Jawa Barat
1.526 18/06/2014 Aprilia CGKAP01011476214 JNE Jakarta
1.525 18/06/2014 Dewi CGKAP01011446814 JNE Sawangan, Jawa Barat
1.524 17/06/2014 Ferawati 202006846436 DPEX Singapore
1.523 17/06/2014 Junarny 13595330081 JNE Mamasa, Sulawesi Barat
1.522 17/06/2014 Lisna CGKAP01006017714 JNE Jakarta
1.521 17/06/2014 Heni CGKAP01005992814 JNE Medan, Sumatera Utara
1.520 17/06/2014 Samhudi CGKAP01005973214 JNE Depok, Jawa Barat
1.519 17/06/2014 Dani CGKAP01005943814 JNE Bantul, Yogyakarta
1.518 17/06/2014 Yulianti CGKAP01005914414 JNE Tigaraksa, Banten
1.517 17/06/2014 Inge CGKAP01005893214 JNE Sawangan, Jawa Barat
1.516 17/06/2014 Dhama CGKAP01005883414 JNE Wonosobo, Jawa tengah
1.515 17/06/2014 Cici CGKAP01005834414 JNE Bandar Lampung, Lampung
1.514 16/06/2014 Izatul 202006873703 DPEX Kuala Lumpur, Malaysia
1.513 16/06/2014 Anggun CGKAP00999199714 JNE Depok, Jawa Barat
1.512 16/06/2014 Yuanita CGKAP00999101514 JNE Jakarta
1.511 16/06/2014 Ike CGKAP00999080314 JNE Jakarta
1.510 16/06/2014 Aslimah CGKAP00999060714 JNE Bekasi, Jawa Barat
1.509 16/06/2014 Irma CGKAP00999041114 JNE Sukabumi, Jawa Barat
1.508 16/06/2014 Evia CGKAP00999031314 JNE Cikarang, Jawa Barat
1.507 16/06/2014 Ester CGKAP00999011714 JNE Cileungsi, Jawa Barat
1.506 16/06/2014 Agnes CGKAP00999121114 JNE Jakarta
1.505 16/06/2014 Wiwin CGKAP00997012314 JNE Balikpapan, Kalimantan Timur
1.504 16/06/2014 Sunarti CGK9J00414116414 JNE Jakarta
1.503 15/06/2014 Samhudi CGKBP02082604814 JNE Depok, Jawa Barat
1.502 15/06/2014 Fenny CGKBP02082593414 JNE P. Siantar, Sumatera Utara
1.501 15/06/2014 Vicky CGKBP02082573814 JNE Jakarta
1.500 15/06/2014 Dwi CGKBP02082564014 JNE Madiun, Jawa tengah
1.499 15/06/2014 Nila CGKBP02082583614 JNE Makassar, Sulawesi Selatan
1.498 14/06/2014 Ilwan CGKAP00996839014 JNE Kendari, Sulawesi Tenggara
1.497 14/06/2014 Inge CGKAP00996809614 JNE Magelang, Jawa Tengah
1.496 14/06/2014 Erti CGKAP00996768814 JNE Majalengka, Jawa Barat
1.495 14/06/2014 Della CGKAP00996788414 JNE Jakarta
1.494 13/06/2014 Veny CGKAP00993091914 JNE Jakarta
1.493 13/06/2014 Munthofiah CGKAP00993062514 JNE Jepara, Jawa Tengah
1.492 13/06/2014 Ria CGKAP00993033114 JNE Cirebon, Jawa Barat
1.491 13/06/2014 Rini CGKAP00992998614 JNE Sukoharjo, Jawa Tengah
1.490 13/06/2014 Suprihatiningsih CGKAP00992979014 JNE Batam, Kep. Riau
1.489 13/06/2014 Mayya CGKAP00992939814 JNE Pelabuhan Ratu, Jawa Barat
1.488 13/06/2014 Ana CGKAP00992900414 JNE Denpasar, Bali
1.487 13/06/2014 Anggun CGKAP00992889214 JNE Depok, Jawa Barat
1.486 13/06/2014 Rischa CGKAP00992869614 JNE Palembang, Sumatera Selatan
1.485 12/06/2014 Arjun 13568081926 JNE Serdangbegadai, Sumatera Utara
1.484 12/06/2014 Fitri CGKAP00988739014 JNE Yogyakarta
1.483 12/06/2014 Naning CGKAP00988698214 JNE Bekasi, Jawa Barat
1.482 12/06/2014 Ayu CGKAP00988668814 JNE Surabaya, Jawa Timur
1.481 12/06/2014 Julia CGKAP00988649214 JNE Sintang, Kalimantan Barat
1.480 12/06/2014 Fiqah CGKAP00988601014 JNE Banyuwangi, Jawa Timur
1.479 12/06/2014 Rani CGKAP00988809214 JNE Karawang, Jawa Barat
1.478 12/06/2014 Mia CGKAP00988797814 JNE Cileungsi, Jawa Barat
1.477 12/06/2014 Devi CGKAP00988768414 JNE Jember, Jawa Timur
1.476 12/06/2014 Nyomi CGKAP00988588814 JNE Makassar, Sulawesi Selatan
1.475 11/06/2014 Liliyana CGKAP00982312814 JNE Garut, Jawa Barat
1.474 11/06/2014 Aisah CGKAP00982281814 JNE Bandung, Jawa Barat
1.473 11/06/2014 Hartata CGKAP00982242614 JNE Bandung, Jawa Barat
1.472 11/06/2014 Yulianti CGKAP00982422214 JNE Baros, Banten
1.471 10/06/2014 Juharni 13568081335 POS Mamasa, Sulawesi Barat
1.470 10/06/2014 Meita CGKAP00974939614 JNE Jakarta
1.469 10/06/2014 Wiwin CGKAP00974929814 JNE Batam, Kep. Riau
1.468 10/06/2014 Ita CGKAP00974911014 JNE Bekasi, Jawa Barat
1.467 10/06/2014 Siti CGKAP00974900214 JNE Brebes, Jawa Tengah
1.466 10/06/2014 Maria CGKAP00974898814 JNE Depok, Jawa Barat
1.465 10/06/2014 Rita CGKAP00976481014 JNE Garut, Jawa Barat
1.464 10/06/2014 Evi CGKAP00976470214 JNE Pacitan, Jawa Timur
1.463 10/06/2014 Indri CGKAP00976460414 JNE Cikarang, Jawa Barat
1.462 10/06/2014 Indah CGKAP00976440814 JNE Slawi, Jawa Tengah
1.461 10/06/2014 Eunika CGKAP00976431014 JNE Semarang, Jawa Tengah
1.460 10/06/2014 Mega CGKAP00976421214 JNE Serang, Banten
1.459 09/06/2014 Nurhazreen 202006845456 DPEX Serawak, Malaysia
1.458 09/06/2014 Dwi 13568080689 POS Amuntai, Kalimantan Selatan
1.457 09/06/2014 Ira 13568080676 POS Timika, Papua
1.456 09/06/2014 Eksan 13568080663 POS Jember, Jawa Timur
1.455 09/06/2014 Titin CGK9J00406444214 JNE Jakarta
1.454 09/06/2014 Yuanita CGKAP00969809314 JNE Jakarta
1.453 09/06/2014 Nia CGKAP00969848514 JNE Magetan, Jawa Tengah
1.452 09/06/2014 Tris CGKAP00969788114 JNE Jakarta
1.451 09/06/2014 Aan CGKAP00969758714 JNE Jakarta
1.450 09/06/2014 Geulis CGKAP00969828914 JNE Pontianak, Kalimantan Barat
1.449 09/06/2014 Dian CGKAP00969819114 JNE Cikarang, Jawa Barat
1.448 07/06/2014 Meta CGKBP02028006614 JNE Jakarta
1.447 07/06/2014 Okta CGKBP02027981714 JNE Purbalingga, Jawa Tengah
1.446 07/06/2014 Tia CGKBP02027942514 JNE Sukabumi, Jawa Barat
1.445 07/06/2014 Sri CGKBP02027903314 JNE Padang, Sumatera Barat
1.444 07/06/2014 Naning CGKBP02027872314 JNE Bekasi, Jawa Barat
1.443 07/06/2014 Tiwi CGKAP00966411614 JNE Prabumulih, Sumatera Selatan
1.442 06/06/2014 Fitri CGKAP00964711014 JNE Kuningan, Jawa Barat
1.441 06/06/2014 Reni CGKAP00964681014 JNE Sidoarjo, Jawa Timur
1.440 06/06/2014 Adinda CGKAP00964650614 JNE Jakarta
1.439 06/06/2014 Jihan CGKAP00964921014 JNE Jakarta
1.438 06/06/2014 Tria CGKAP00964611414 JNE Tangerang, Banten
1.437 05/06/2014 Widya CGKAP00959280314 JNE Pematang Siantar, Sumatera Utara
1.436 05/06/2014 Yuanita CGKAP00959190514 JNE Jakarta
1.435 05/06/2014 Eunika CGKAP00959161114 JNE Semarang, Jawa Tengah
1.434 05/06/2014 Susanti CGKAP00959131714 JNE Surabaya, Jawa Timur
1.433 05/06/2014 Heni CGKAP00959112114 JNE Medan, Sumatera Utara
1.432 04/06/2014 Novita CGKAP00949858714 JNE Slawi, Jawa Tengah
1.431 04/06/2014 Jihan CGKAP00953780114 JNE Jakarta
1.430 04/06/2014 Ina CGKAP00953731114 JNE Bandung, Jawa Barat
1.429 04/06/2014 Yuanita CGKAP00953701714 JNE Jakarta
1.428 04/06/2014 Sunarti CGKAP00953801314 JNE Blitar, Jawa Tengah
1.427 04/06/2014 Hendy CGKAP00953750714 JNE Padang, Sumatera Barat
1.426 04/06/2014 Shantry CGKAP00949848914 JNE Palembang, Sumatera Selatan
1.425 04/06/2014 Novita CGKAP00949839114 JNE Bandung, Jawa Barat
1.424 04/06/2014 Desty CGKAP00949829314 JNE Semarang, Jawa Tengah
1.423 04/06/2014 Ade CGKAP00949819514 JNE Jakarta
1.422 03/06/2014 Elvira CGKAP00948530614 JNE Jakarta
1.421 03/06/2014 Fitri CGKAP00948550214 JNE Jakarta
1.420 03/06/2014 Darwo CGKAP00948511014 JNE Brebes, Jawa Tengah
1.419 03/06/2014 Omar CGKAP00948501214 JNE Pontianak, Kalimantan Barat
1.418 03/06/2014 Ika CGKAP00948481014 JNE Cikampek, Jawa Barat
1.417 03/06/2014 Aulia CGKAP00948450614 JNE Jatiluhur, Jawa Barat
1.416 03/06/2014 Nurjamin CGKAP00948431014 JNE Bandung, Jawa Barat
1.415 03/06/2014 Siti CGKAP00948390214 JNE Mojokerto, Jawa Tengah
1.414 03/06/2014 Samawati CGKAP00948370614 JNE Batang, Jawa Tengah
1.413 03/06/2014 Rosy 13595572183 POS Palangkaraya, Kalimantan Tengah
1.412 02/06/2014 Nurhazreen 202006844211 DPEX Serawak, Malaysia
1.411 02/06/2014 Mira 13594037774 POS Batam, Kepulauan Riau
1.410 02/06/2014 Sri 13594037761 POS Muara Enim, Jambi
1.409 02/06/2014 Wiwik CGKAP00943223514 JNE Bekasi, Jawa Barat
1.408 02/06/2014 Sri CGKAP00943203914 JNE Banjar, Jawa Barat
1.407 02/06/2014 Tri CGKAP00943252914 JNE Sukabumi, Jawa Barat
1.406 02/06/2014 Sri CGKAP00943332914 JNE Tangerang, Banten
1.405 02/06/2014 Fitri CGKAP00943282314 JNE Jakarta
1.404 02/06/2014 Ramli CGKAP00943313314 JNE Bangkalan, Madura
1.403 31/05/2014 Anggun CGKAP00938091614 JNE Depok, Jawa Barat
1.402 31/05/2014 Sadi CGKAP00938103014 JNE Cirebon, Jawa Barat
1.401 31/05/2014 Hasni 13568068172 POS Balikpapan, Kalimantan Timur
1.400 30/05/2014 Aini CGKAP00934182614 JNE Blora, Jawa Timur
1.399 30/05/2014 Mia CGKAP00934172814 JNE Purwakarta, Jawa Barat
1.398 30/05/2014 Sri CGKAP00934163014 JNE Banjar, Jawa Barat
1.397 30/05/2014 Uswatun CGKAP00934203814 JNE Jember, Jawa Timur
1.396 30/05/2014 Fiqa CGKAP00934213614 JNE Semarang, Jawa Tengah
1.395 30/05/2014 Elisa CGKAP00934192414 JNE Medan, Sumatera Utara
1.394 29/05/2014 Marsoyo CGKBP01955302414 JNE Solo, Jawa Tengah
1.393 29/05/2014 Ponadji CGKBP01955331814 JNE Ngawi, Jawa Tengah
1.392 29/05/2014 Titiek CGKBP01955371014 JNE Denpasar, Bali
1.391 29/05/2014 Ningsih CGKBP01955341614 JNE Kuta, Bali
1.390 28/05/2014 Hanik CGKAP00928232214 JNE Jakarta
1.389 28/05/2014 Maria CGKAP00928181614 JNE Jakarta
1.388 28/05/2014 Nila CGKAP00928162014 JNE Tempuran, Jawa Barat
1.387 28/05/2014 Delta CGKAP00928142414 JNE Sidoarjo, Jawa Timur
1.386 28/05/2014 Sundariani CGKAP00928113014 JNE Lampung Utara, Lampung
1.385 28/05/2014 Nining CP003044615ID POS Kuala Lumpur, Malaysia
1.384 27/05/2014 Cut CGKBP01939071414 JNE Tangerang, Banten
1.383 27/05/2014 Mukaromah CGKBP01939091014 JNE Klungkung, Bali
1.382 27/05/2014 Anggun CGKBP01939112214 JNE Depok, Jawa Barat
1.381 26/05/2014 Edi 13568066585 POS Manado, Sulawesi Utara
1.380 26/05/2014 Linna CGKAP00921234314 JNE Jakarta
1.379 26/05/2014 Farhanah CGKAP00921204914 JNE Surabaya, Jawa Timur
1.378 26/05/2014 Andini CGKAP00921173914 JNE Sukabumi, Jawa Barat
1.377 26/05/2014 Fauziah CGKAP00921154314 JNE Tangerang, Banten
1.376 26/05/2014 Hendy CGKAP00918441414 JNE Padang, Sumatera Barat
1.375 26/05/2014 Ayu CGKAP00918421814 JNE Pondokaren, Banten
1.374 26/05/2014 Dewi CGKAP00918461014 JNE Medan, Sumatera Utara
1.373 26/05/2014 Elisa CGKAP00918480614 JNE Medan Johor, Sumatera Utara
1.372 26/05/2014 Yetty CGKAP00918390814 JNE Bandung, Jawa Barat
1.371 26/05/2014 Heni CGKAP00918381014 JNE Medan, Sumatera Utara
1.370 26/05/2014 Nindah CGKAP00918361414 JNE Bandung, Jawa Barat
1.369 24/05/2014 Abibah 202006784943 DPEX Malaysia
1.368 24/05/2014 Olla CGKAP00916491014 JNE Bandung, Jawa Barat
1.367 24/05/2014 Iva CGKAP00916481214 JNE Kendal, Jawa Tengah
1.366 24/05/2014 Yulia CGKAP00916442014 JNE Cilacap, Jawa tengah
1.365 24/05/2014 Lila CGKAP00915959914 JNE Bogor, Jawa Barat
1.364 24/05/2014 Uswatun CGKAP00915979714 JNE Jember, Jawa Timur
1.363 24/05/2014 Irmawati CGKAP00915989514 JNE Bogor, Jawa Barat
1.362 24/05/2014 Irma CGKAP00915999314 JNE Sukabumi, Jawa Barat
1.361 24/05/2014 Anggun CGKAP00916014214 JNE Depok, Jawa Barat
1.360 23/05/2014 Ika 13568066358 POS Manado, Sulawesi Utara
1.359 23/05/2014 Elisa CGKAP00910154814 JNE Medan, Sumatera Utara
1.358 23/05/2014 Mukaromah CGKAP00910135214 JNE Klungkung, Bali
1.357 23/05/2014 Syanti CGKAP00910084614 JNE Pekanbaru, Riau
1.356 23/05/2014 Frederika CGKAP00910065014 JNE Pamulang, Banten
1.355 23/05/2014 Hojannah CGKAP00910215214 JNE Jakarta
1.354 23/05/2014 Sumiati CGKAP00910115614 JNE Jakarta
1.353 23/05/2014 Novida CGKAP00910205414 JNE Pekanbaru, Riau
1.352 23/05/2014 Muslikah CGKAP00910174414 JNE Surabaya, Jawa Timur
1.351 22/05/2014 Mufa’ati CGKAP00905114314 JNE Demak, Jawa Tengah
1.350 22/05/2014 Ningsih CGKAP00905093114 JNE Kesamben, Jawa Timur
1.349 22/05/2014 Sulis CGKAP00905063714 JNE Depok, Jawa Barat
1.348 22/05/2014 Entin CGKAP00905053914 JNE Cikarang, Jawa Barat
1.347 22/05/2014 Uni CGKAP00905034314 JNE Jakarta
1.346 22/05/2014 Khusnul CGKAP00905024514 JNE Prambon, Jawa Timur
1.345 22/05/2014 Veny CGKAP00906651214 JNE Jakarta
1.344 22/05/2014 Yuni CGKAP00906631614 JNE Medan, Sumatera Utara
1.343 22/05/2014 Darmiyati CGKAP00906612014 JNE Blitar, Jawa Timur
1.342 22/05/2014 Yulianto CGKAP00905014714 JNE Semarang, Jawa Tengah
1.341 21/05/2014 Nurhazreen 202006842800 DPEX Serawak, Malaysia
1.340 21/05/2014 Indah 13568065553 POS Luwuk, Sulawesi Tengah
1.339 21/05/2014 Sri 13568065066 POS Waingapu, Nusa Tenggara Timur
1.338 21/05/2014 Hartini CGKAP00900254614 JNE Prambon, Jawa Timur
1.337 21/05/2014 Yulia CGKAP00900194214 JNE Cilacap, Jawa Tengah
1.335 21/05/2014 Yendrawati CGKAP00900155014 JNE Telanaipura, Jambi
1.335 21/05/2014 Risdiyanti CGKAP00900205614 JNE Jakarta
1.334 21/05/2014 Ika CGKAP00900184414 JNE Pekalongan, Jawa tengah
1.333 21/05/2014 Lilies CGKAP00900174614 JNE Tangerang, Banten
1.332 21/05/2014 Agustina CGKAP00900164814 JNE Jimbaran, Bali
1.331 21/05/2014 Irma CGKAP00900145214 JNE Sukabumi, Jawa Barat
1.330 20/05/2014 Yuliana 13568064667 POS Dumai, Riau
1.329 20/05/2014 Ika 13568064670 POS Manado, Sulawesi Utara
1.328 20/05/2014 Darma CGKAP00895341514 JNE Surabaya, Jawa Timur
1.327 20/05/2014 Rosa CGKAP00895321914 JNE Bekasi, Jawa Barat
1.326 20/05/2014 Ayu CGKAP00895312114 JNE Jakarta
1.325 20/05/2014 Adinda CGKAP00895290914 JNE Jakarta
1.324 19/05/2014 Nia CGKAP00888032214 JNE Jakarta
1.323 19/05/2014 Khusnul CGKAP00888012614 JNE Sidoarjo, Jawa Timur
1.322 19/05/2014 Agus CGKAP00887987914 JNE Pondok Aren, Banten
1.321 19/05/2014 Aulia CGKAP00887958514 JNE Jatiluhur, Jawa Barat
1.320 19/05/2014 Partini CGKAP00887919314 JNE Magelang, Jawa Tengah
1.319 19/05/2014 Frederika CGKAP00887909514 JNE Pamulang, Banten
1.318 19/05/2014 Retno CGKAP00887868714 JNE Jakarta
1.317 19/05/2014 Suryana CGKAP00887849114 JNE Cibinong, Jawa Barat
1.316 19/05/2014 Fitriana CGKAP00887829514 JNE Bukit Raya, Riau
1.315 19/05/2014 Lila CGKAP00887819714 JNE Bogor, Jawa Barat
1.314 19/05/2014 Nieske CGKAP00887798514 JNE Jakarta
1.313 19/05/2014 Nunung CGKAP00887778914 JNE Cibitung, Jawa Barat
1.312 19/05/2014 Ai Sumarni CGKAP00887769114 JNE Sumedang, Jawa Barat
1.311 19/05/2014 Dessy CGKAP00887749514 JNE Sukabumi, Jawa Barat
1.310 17/05/2014 Yesi CGKAP00885620914 JNE Sukabumi, Jawa Barat
1.309 17/05/2014 Melia CGKAP00885699514 JNE Tigaraksa, Banten
1.308 17/05/2014 Ismi CGKAP00885679914 JNE Pondok Gede, Jawa Barat
1.307 17/05/2014 Sri CGKAP00885650314 JNE Bekasi, Jawa Barat
1.306 17/05/2014 Sumiati CGKAP00885599914 JNE Jakarta
1.305 16/05/2014 Oki CGKAP00880423214 JNE Jakarta
1.304 16/05/2014 Adinda CGKAP00880462414 JNE Jakarta
1.303 16/05/2014 Nurmawati CGKAP00880392214 JNE Jombang, Jawa Timur
1.302 16/05/2014 Dita CGKAP00880372614 JNE Sako, Sumatera Selatan
1.301 16/05/2014 Rara CGKAP00880343214 JNE Umbulharjo, Yogyakarta
1.300 15/05/2014 Oki CGKBP01861392014 JNE Jakarta
1.299 15/05/2014 Venny CGKBP01861352814 JNE Jakarta
1.298 15/05/2014 Dhama CGKBP01861372414 JNE Wonosobo, Jawa Tengah
1.297 15/05/2014 Hj. Linda CGKBP01861343014 JNE Banjarmasin, Kalimantan Selatan
1.296 14/05/2014 Subandriyo 13572566427 POS Batulicin, Kalimantan Selatan
1.295 14/05/2014 Nining CP005302475ID POS Kuala Lumpur, Malaysia
1.294 14/05/2014 Izatul CP009560016ID POS Malaysia
1.293 14/05/2014 Fauziyah CGK9J00380573814 JNE Sumedang, Jawa Barat
1.292 13/05/2014 Tiara CGKAP00870214414 JNE Bangkahulu, Bengkulu
1.291 13/05/2014 Rizka CGKAP00870193214 JNE Blora, Jawa Tengah
1.290 13/05/2014 Nirmala 13368062158 POS Dumai
1.289 11/05/2014 Ika 13368061999 POS Manado, Sulawesi Utara
1.288 11/05/2014 Rosa CGKAP00864104014 JNE Bekasi, Jawa Barat
1.287 11/05/2014 Esti CGKAP00864073014 JNE Pekalongan, Jawa Tengah
1.286 11/05/2014 Bunda Dina CGKAP00864053414 JNE Surabaya, Jawa Timur
1.285 11/05/2014 Fitria CGKAP00864033814 JNE Pandaan, Jawa Timur
1.284 11/05/2014 Aisyah CGKAP00864004414 JNE Bandung, Jawa Barat
1.283 11/05/2014 Cicih CGKAP00863979714 JNE Kuningan, Jawa Barat
1.282 11/05/2014 Sunarti CGKAP00863930514 JNE Indramayu, Jawa Barat
1.281 11/05/2014 Hanik CGKAP00863899714 JNE Jakarta
1.280 11/05/2014 Agus CGKAP00863889914 JNE Pondok Aren, Banten
1.279 11/05/2014 Uswatun CGKAP00858669814 JNE Jember, Jawa Timur
1.278 11/05/2014 Agung CGKAP00858630414 JNE Blitar, Jawa Tengah
1.277 11/05/2014 Trian CGKAP00858610814 JNE Banyuwangi, Jawa Timur
1.276 11/05/2014 Adinda CGKAP00858601014 JNE Jakarta
1.275 11/05/2014 Nurbudi CGKAP00858599614 JNE Tambun, Jawa Barat
1.274 11/05/2014 Yetty CGKAP00858550414 JNE Bandung, Jawa Barat
1.273 11/05/2014 Irma CGKAP00858521014 JNE Cikarang, Jawa Barat
1.272 10/05/2014 Mayya CGKBP01830472914 JNE Pelabuhan Ratu, Jawa Barat
1.271 10/05/2014 Ulfah CGKBP01830482714 JNE Jakarta
1.270 10/05/2014 Eka CGKBP01830453314 JNE Muara Teweh, Kalimantan Tengah
1.269 10/05/2014 Esti CGKAP00856033414 JNE Magelang, Jawa Tengah
1.268 10/05/2014 Jenab CGKAP00856053014 JNE Cikarang, Jawa Barat
1.267 10/05/2014 Jenny CGKAP00856023614 JNE Pekanbaru, Riau
1.266 09/05/2014 Niken CGKAP00851901914 JNE Palembang, Sumatera Selatan
1.265 09/05/2014 Erma CGKAP00851890514 JNE Teluk Betung, Lampung
1.264 09/05/2014 Winarlin CGKAP00851880714 JNE Malang, Jawa Timur
1.263 09/05/2014 Reska CGK1M00194274414 JNE Sumedang, Jawaa Barat
1.262 09/05/2014 Aulia CGK1M00194284214 JNE Jatiluhur, Jawa Barat
1.261 09/05/2014 Kiki 13358061262 POS Selong, Nusa Tenggara Barat
1.260 09/05/2014 Jasmine CP 005302538 ID JNE Kuala Lumpur, Malaysia
1.259 08/05/2014 Novita CGKAP00847898914 JNE Slawi, Jawa Tengah
1.258 08/05/2014 Meicka CGKAP00847900314 JNE Jakarta
1.257 08/05/2014 Rizka CGKAP00847889114 JNE Blora, Jawa Timur
1.256 08/05/2014 Ika CGKAP00847869514 JNE Pekalongan, Jawa Tengah
1.255 08/05/2014 Sofi CGKAP00847879314 JNE Garut, Jawa Barat
1.254 07/05/2014 Meta CGKAP00843661514 JNE Jakarta
1.253 07/05/2014 Mufa’ati CGKAP00843641914 JNE Demak, Jawa Timur
1.252 07/05/2014 Dini CGKAP00843622314 JNE Pekalongan, Jawa tengah
1.251 07/05/2014 Sukarti CGKAP00842025014 JNE Jakarta
1.250 07/05/2014 Jamilah CGKAP00841990314 JNE Ilir Barat I, Sumatera Selatan
1.249 07/05/2014 Sisca CGKAP00841980514 JNE Karanganyar, Jawa Tengah
1.248 07/05/2014 Khusnul CGKAP00841970714 JNE Sidoarjo, Jawa Timur
1.247 07/05/2014 Yessy CGKAP00841960914 JNE Subang, Jawa Barat
1.246 07/05/2014 Yopi 13368060350 POS Singkawang, Kalimantan Barat
1.245 07/05/2014 Indah 13368060347 POS Luwuk, Sulawesi tengah
1.244 06/05/2014 Tari CGKAP00837701314 JNE Purwokerto, Jawa Tengah
1.243 06/05/2014 Tiara CGKAP00837680114 JNE Bangkahulu, Bengkulu
1.242 06/05/2014 Mega CGKAP00837650714 JNE Cibubur, Jawa Barat
1.241 06/05/2014 Fitria CGKAP00837631114 JNE Sidoarjo, Jawa Timur
1.240 06/05/2014 Uweng CGKAP00837621314 JNE Palembang, Sumatera Selatan
1.239 06/05/2014 Mufa’ati CGKAP00837590314 JNE Demak, Jawa Tengah
1.238 06/05/2014 Dini CGKAP00837570714 JNE Cibitung, Jawa Barat
1.237 06/05/2014 Jenny CGKAP00837551114 JNE Wonorejo, Jawa Tengah
1.236 06/05/2014 Nurfadilah CGKAP00837711114 JNE Jakarta
1.235 05/05/2014 Yulianto CGKAP00829650314 JNE Semarang, Jawa Tengah
1.234 05/05/2014 Desty CGKAP00829630714 JNE Semarang, Jawa Tengah
1.233 05/05/2014 Desta CGKAP00829601314 JNE Jakarta
1.232 05/05/2014 Marsony CGKAP00829570314 JNE Batuceper, Banten
1.231 05/05/2014 Nuraini CGKAP00829679914 JNE Blora, Jawa Timur
1.230 05/05/2014 Nunu CGKAP00829560514 JNE Makassar, Sulawesi Selatan
1.229 05/05/2014 Sri CGKAP00829550714 JNE Medan, Sumatera Utara
1.228 05/05/2014 Atikah CGKAP00829531114 JNE Purwakarta, Jawa Barat
1.227 05/05/2014 Baiq CGKAP00829511514 JNE Probolinggo, Jawa tengah
1.226 03/05/2014 Vivi CGKAP00824552214 JNE Tegal, Jawa Tengah
1.225 03/05/2014 Chandra CGKAP00824542414 JNE Jakarta
1.224 03/05/2014 Omar CGK9J00368263214 JNE Pontianak, Kalimantan Barat
1.223 03/05/2014 Yetty CGK9J00368273014 JNE Bandung, Jawa Barat
1.222 03/05/2014 MS Tanik CGK9J00368282814 JNE Jakarta
1.221 02/05/2014 Shin CGKAP00822035214 JNE Cikarang
1.219 02/05/2014 Suaidah CGKAP00821990714 JNE Makassar, Sulawesi Selatan
1.218 02/05/2014 Yanti CGKAP00822164214 JNE Jepara, Jawa Tengah
1.217 02/05/2014 Wati CGKAP00822074414 JNE Jakarta
1.216 02/05/2014 Dhama CGKAP00821951514 JNE Wonosobo
1.215 02/05/2014 Adinda CGKAP00821861714 JNE Cikarang, Jawa Barat
1.214 02/05/2014 Agung CGKAP00821902514 JNE Blitar, Jawa Timur
1.213 02/05/2014 Mayya CGKAP00821931914 JNE Pelabhuna Ratu, Jawa Barat
1.212 02/05/2014 Siti CGKAP00822064614 JNE Jakarta
1.211 01/05/2014 Rohayati CGKBP01776082114 JNE Indramayu, Jawa Barat
1.210 01/05/2014 Anive CGKBP01776103314 JNE Depok, Jawa Barat
1.209 01/05/2014 Juhar CGKBP01776132714 JNE Jakarta
1.208 01/05/2014 Danipah CGKBP01776152314 JNE Slawi, Jawa Tengah
1.207 30/04/2014 Andi 13336118154 POS Manado, Sulawesi Utara
1.206 30/04/2014 Cicor CGKAP00811393314 JNE Batam, Kep. Riau
1.205 30/04/2014 Mayya CGKAP00811434114 JNE Pelabuhan Ratu, Jawa Barat
1.204 30/04/2014 MS Tanik CGKAP00811414514 JNE Jakarta
1.203 29/04/2014 Nurhazreen 202006840184 DPEX Serawak, Malaysia
1.202 29/04/2014 Masdafni CGKAP00808701614 JNE Siberida, Jambi
1.201 29/04/2014 Maradona CGKAP00808879814 JNE Cilodong, Jawa Barat
1.200 29/04/2014 Marson CGKAP00808830614 JNE Tangerang, Jawa Barat
1.199 29/04/2014 Dede CGKAP00808801214 JNE Purwakarta, Jawa Barat
1.198 29/04/2014 Dewi CGKAP00808760414 JNE Balikpapan, Kalimantan Timur
1.197 29/04/2014 Mayya CGKAP00805064114 JNE Pelabuhanratu, Jawa Barat
1.196 29/04/2014 Kahfi CGKAP00805054314 JNE Singkawang, Kalimantan Barat
1.195 29/04/2014 Erma CGKAP00805044514 JNE Teluk Betung, Lampung
1.194 29/04/2014 Tyas CGKAP00805034714 JNE Slawi, Jawa Tengah
1.193 29/04/2014 Nur CGKAP00805024914 JNE Cikarang, Jawa Barat
1.192 29/04/2014 Ana CGKAP00805005314 JNE Banyumanik, Jawa Tengah
1.191 29/04/2014 Peni CGKAP00804990214 JNE Jelutung, Jambi
1.190 29/04/2014 Yulianto CGKAP00804980414 JNE Semarang, Jawa tengah
1.189 29/04/2014 Ida CGKAP00804970614 JNE Batam, Kep. Riau
1.188 29/04/2014 Nieske CGKAP00804960814 JNE Jakarta
1.187 29/04/2014 Sri CGKAP00804951014 JNE Medan Tembung, Sumatera Utara
1.186 28/04/2014 Alia CGKAP00797669714 JNE Depok, Jawa Barat
1.185 28/04/2014 Omar CGKAP00797659914 JNE Pontianak, Kalimantan Barat
1.184 28/04/2014 Iis CGKAP00797689314 JNE Ngrampah, Jawa Barat
1.183 26/04/2014 Yanthi CGKBP01741343814 JNE Cinere, Jawa Barat
1.182 26/04/2014 Khusnul CGKBP01741334014 JNE Sidoarjo, Jawa Timur
1.181 26/04/2014 Ni Kadek CGKBP01741304614 JNE Denpasar, Bali
1.180 26/04/2014 Suprayogi CGKBP01741404214 JNE Bengkalis, Jawa Timur
1.179 26/04/2014 Anive CGKBP01741324214 JNE Depok, Jawa Barat
1.178 26/04/2014 Arika CGKBP01741273614 JNE Hambulu, Jawa Barat
1.177 26/04/2014 Debi CGKBP01741363514 JNE Bekasi, Jawa Barat
1.176 26/04/2014 Sunarti CGKBP01741263814 JNE Indramayu, Jawa Barat
1.175 25/04/2014 Asih CGKAP00792114214 JNE Cikarang, Jawa Barat
1.174 25/04/2014 Mifta CGKAP00791901514 JNE Sidoarjo, Jawa Timur
1.173 25/04/2014 Sri CGKAP00792024414 JNE Muara Enim, Jambi
1.172 25/04/2014 Indra CGKAP00792044014 JNE Karawang, Jawa Barat
1.171 25/04/2014 Iis CGKAP00792053814 JNE Lembang, Jawa Barat
1.170 25/04/2014 Reska CGKAP00792163214 JNE Sumedang, Jawa Barat
1.169 25/04/2014 Anita CGKAP00791999714 JNE Lamongan, Jawa tengah
1.168 25/04/2014 Juhar CGKAP00792143614 JNE Juhar
1.167 25/04/2014 Sri CGKAP00791880314 JNE Jakarta
1.166 25/04/2014 Farid CGKAP00792182814 JNE Kudus, Jawa Tengah
1.165 25/04/2014 Wiwin CGKAP00791960314 JNE Balikpapan, Kalimantan Timur
1.164 25/04/2014 Suyanto CGKAP00792083214 JNE Cibitung, Jawa Barat
1.163 25/04/2014 Tissa CGKAP00791860714 JNE Cibubur, Jawa Barat
1.162 25/04/2014 Jenab CGK9J00360584014 JNE Cikarang, Banten
1.161 25/04/2014 Nunung CGK9J00360593814 JNE Cibitung, Jawa Barat
1.160 24/04/2014 Sukarmin 021203572 POS Tebo, Jambi
1.159 24/04/2014 Fitriana CGKAP00789270714 JNE Ciampea, Jawa Barat
1.158 24/04/2014 Vivi CGKAP00788968414 JNE Tegal, Jawa tengah
1.157 24/04/2014 Meta CGKAP00789202114 JNE Jakarta
1.156 24/04/2014 Jenab CGKAP00789022514 JNE Cikarang, Banten
1.155 24/04/2014 Ayu CGKAP00788988014 JNE Bintaro, Banten
1.154 24/04/2014 Rizka CGKAP00789102514 JNE Blora, Jawa tengah
1.153 24/04/2014 Anive CGKAP00789061714 JNE Depok, Jawa Barat
1.152 24/04/2014 Andini CGKAP00785959514 JNE Ciwaringin, Jawa Barat
1.151 24/04/2014 Iis CGKAP00785939914 JNE Ngrampah, Jawa Barat
1.150 24/04/2014 Alipah CGKAP00785920114 JNE Serpong, Banten
1.149 24/04/2014 Asih CGKAP00789241314 JNE Cikarang, Banten
1.148 24/04/2014 Susiyani CGKAP00789171114 JNE Jakarta
1.147 24/04/2014 Marson CGKAP00789131914 JNE Batuceper, Banten
1.146 23/04/2014 Matondang CGKAP00778470414 JNE Medan Tembung, Sumatera Utara
1.145 23/04/2014 Samhudi CGKAP00778450814 JNE Cimanggis, Jawa Barat
1.144 23/04/2014 Monica CGKAP00778441014 JNE Cikarang, Jawa Barat
1.143 23/04/2014 Melanti CGKAP00778431214 JNE Lohbener, Jawa Barat
1.142 23/04/2014 Dian CGKAP00778411614 JNE Tiga Raksa, Banten
1.141 23/04/2014 Syaiful CGKAP00778401814 JNE Jakarta
1.140 23/04/2014 Ria CGKAP00778390414 JNE Batam, Kep. Riau
1.139 23/04/2014 Lydia CGKAP00778380614 JNE Palembang, Sumatera Selatan
1.138 23/04/2014 Ana CGKAP00778370814 JNE Banyumanik, Jawa tengah
1.137 23/04/2014 Ratih CGKAP00778491014 JNE Blora, Jawa tengah
1.136 23/04/2014 Hesty CGKAP00778501414 JNE Bandung, Jawa Barat
1.135 23/04/2014 Irma CGKAP00778511214 JNE Jakarta
1.134 23/04/2014 Ira CGKAP00778521014 JNE Jakarta
1.133 23/04/2014 Bunda Dina CGKAP00778540614 JNE Surabaya, Jawa Timur
1.132 23/04/2014 Fauziah CGKAP00778560214 JNE Sumedang, Jawa Barat
1.131 22/04/2014 Jasimine 202006799072 DPEX Kuala Lumpur, Malaysia
1.130 22/04/2014 Nining CP 003233622 ID POS Selangor, Malaysia
1.129 22/04/2014 Jayanti CGKAP00772024814 JNE Denpasar, Bali
1.128 22/04/2014 Sadi CGKAP00772015014 JNE Cirebon, Jawa Barat
1.127 22/04/2014 Wellindah CGKAP00772034614 JNE Karawang, Jawa Barat
1.126 22/04/2014 Syawal CGKAP00772054214 JNE Depok, Jawa Barat
1.125 22/04/2014 Devira CGKAP00771990114 JNE Depok, Jawa Barat
1.124 22/04/2014 Linda CGKAP00771960714 JNE Jakarta
1.123 22/04/2014 Eka CGKAP00771970514 JNE Muara Teweh, Kalimantan Tengah
1.122 22/04/2014 Sri Lestari CGKAP00771950914 JNE Jakarta
1.121 22/04/2014 Aimatul CGKAP00771980314 JNE Kediri, Jawa Timur
1.120 22/04/2014 Hanik CGKAP00771931314 JNE Jakarta
1.119 22/04/2014 Camelia CGKAP00772044414 JNE Sidoarjo, Jawa Timur
1.118 21/04/2014 Arika CGKAP00767062714 JNE Bogor, Jawa Barat
1.117 21/04/2014 Yayang CGKAP00766879614 JNE Citeureup, Jawa Barat
1.116 21/04/2014 Tika CGKAP00766840214 JNE Padang, Sumatera Barat
1.115 21/04/2014 Bamby CGKAP00767013714 JNE Bitung Timur, Sulawesi Utara
1.114 21/04/2014 Supriyono CGKAP00766889414 JNE Trenggalek, Jawa tengah
1.113 21/04/2014 Dwi CGKAP00766910414 JNE Singaraja, Bali
1.112 21/04/2014 Qurrota CGKAP00766931014 JNE Banyuwangi, Jawa Timur
1.111 21/04/2014 Murofiah CGKAP00766949814 JNE Nganjuk, Jawa Timur
1.110 21/04/2014 Panji CGKAP00766989014 JNE Ilir Barat I, Sumatera Selatan
1.109 19/04/2014 Vivi CGKAP00763831314 JNE Tegal, Jawa Tengah
1.108 19/04/2014 Diena CGKAP00763850914 JNE Magelang, Jawa tengah
1.107 19/04/2014 Farid CGKAP00763870514 JNE Kudus, Jawa Tengah
1.106 19/04/2014 Mayya CGKAP00763880314 JNE Pelabuhan Ratu, Jawa Barat
1.105 19/04/2014 Frieda CGKAP00763890114 JNE Jakarta
1.104 18/04/2014 Aimatul CGKBP01695998614 JNE Kediri, Jawa Timur
1.103 18/04/2014 Desy CGKBP01695988814 JNE Dampit, Jawa Timur
1.102 18/04/2014 Suwiri CGKBP01695979014 JNE Brebes, Jawa Tengah
1.101 18/04/2014 Rizka CGKBP01695969214 JNE Blora, Jawa Tengah
1.100 18/04/2014 Hanida CGKBP01695959414 JNE Banjarmasin, Kalimantan Selatan
1.099 18/04/2014 Siti Hojannah CGKBP01695949614 JNE Jakarta
1.098 18/04/2014 Pipiet CGKBP01695939814 JNE Serang, Banten
1.097 18/04/2014 Maya CGKBP01695921014 JNE Jakarta
1.096 18/04/2014 Sofi CGKBP01695910214 JNE Garut, Jawa Barat
1.095 17/04/2014 Nurhazreen 202006798766 DPEX Kuching Serawak, Malaysia
1.094 16/04/2014 Iis CGKAP00753372714 JNE Lembang, Jawa Barat
1.093 14/04/2014 Yuanita CGKAP00740912614 JNE Palangkaraya, Kalimantan Tengah
1.092 14/04/2014 Aimatu CGKAP00740902814 JNE Kediri, Jawa Timur
1.091 14/04/2014 Omar CGKAP00740891414 JNE Pontianak, Kalimantan Barat
1.090 14/04/2014 Khusnul CGKAP00740832614 JNE Sidoarjo, Jawa Timur
1.089 14/04/2014 Djuwariah CGKAP00740881614 JNE Bogor, Jawa Barat
1.088 13/04/2014 Titin CGKBS01027265214 JNE Cikarang, Jawa Barat
1.087 13/04/2014 Rini CGKBS01027275014 JNE Pekanbaru, Riau
1.086 13/04/2014 Nina CGKBS01027294614 JNE Nganjuk, Jawa Timur
1.085 13/04/2014 Kristiana CGKBS01027315814 JNE Tebo, Jambi
1.084 12/04/2014 Sumiyati 021162877 POS Batulicin, Kalimantan Selatan
1.083 12/04/2014 Yopi 021162878 POS Bengkayang, Kalimantan Barat
1.082 11/04/2014 Kahfi CGKAP00736690614 JNE Singkawang, Kalimantan Barat
1.081 11/04/2014 Khusnul CGKAP00736731414 JNE Jember, Jawa Timur
1.080 11/04/2014 Purwanti CGKAP00736751014 JNE Tarakan, Kalimantan Utara
1.079 11/04/2014 Della CGKAP00736811414 JNE Bandung, Jawa Barat
1.078 11/04/2014 Cahyo CGKAP00736831014 JNE Pontianak, Kalimantan Barat
1.077 11/04/2014 Ema CGKAP00736870214 JNE Tangerang, Banten
1.076 11/04/2014 Yuliana CGKAP00736911014 JNE Jakarta
1.075 11/04/2014 Novri CGKAP00731891314 JNE Palangkaraya, Kalimantan Tengah
1.074 11/04/2014 Sri CGKAP00731852114 JNE Batam, Kep. Riau
1.073 11/04/2014 Yusti CGKAP00731932114 JNE Cianjur, Jawa Barat
1.072 11/04/2014 Muthia CGKAP00731871714 JNE Jakarta
1.071 11/04/2014 Tri CGKAP00731881514 JNE Sukoharjo, Jawa Tengah
1.070 11/04/2014 Mifta CGKAP00731902714 JNE Sidoarjo, Jawa Timur
1.069 11/04/2014 Meta CGKAP00731951714 JNE Jakarta
1.068 11/04/2014 Ana CGKAP00731971314 JNE Semarang, Jawa tengah
1.067 11/04/2014 Dwi CGKAP00732006014 JNE Buleleng, Bali
1.066 10/04/2014 Dewi CGKAH01096135114 JNE Kedu, Jawa Tengah
1.065 08/04/2014 Aimatul CGKAH01096154714 JNE Kediri, Jawa Timur
1.064 08/04/2014 Suci CGKAH01096045314 JNE Parigi, Sulawesi Tengah
1.063 08/04/2014 Tanik CGKAH01096025714 JNE Jakarta
1.062 08/04/2014 Desi CGKAH01096006114 JNE Bogor, Jawa Barat
1.061 08/04/2014 Uweng CGKAH01096094314 JNE Palembang, Sumatera Selatan
1.060 08/04/2014 Joko CGKAP00722951614 JNE Boyolali, Jawa Tengah
1.059 09/04/2014 Citra CGKAP00722941814 JNE Jakarta
1.058 08/04/2014 Purwanti CGK9J00343723814 JNE Jakarta
1.057 08/04/2014 Syaiful CGKAH01089074014 JNE Jakarta
1.056 08/04/2014 Suryadi CGKAH01089064214 JNE Sleman, Yogyakarta
1.055 08/04/2014 Riza CGKAH01089044314 JNE Banjarnegara, Jawa tengah
1.054 07/04/2014 Lili CGKAP00717612314 JNE Palangkaraya, Kalimantan Tengah
1.053 07/04/2014 Kahfi CGKAP00714105414 JNE Singkawang, Kalimantan Barat
1.052 07/04/2014 Estiawati CGKAP00714125014 JNE Bantul, Jawa tengah
1.051 07/04/2014 Reska CGKAP00713931914 JNE Sumedang, Jawa Barat
1.050 07/04/2014 Omar CGKAP00713951514 JNE Pontianak, Kalimantan Barat
1.049 07/04/2014 Sundariani CGKAP00714084214 JNE Kotabumi, Lampung
1.048 07/04/2014 Disha CGKAP00714054814 JNE Jakarta
1.047 07/04/2014 Sekar CGKAP00714025414 JNE Sleman, Yogyakarta
1.046 07/04/2014 Linda CGKAP00714005814 JNE Ngabang, Jawa Timur
1.045 06/04/2014 Wuryaningsih CGKBS00996977814 JNE Muntilan, Jawa Tengah
1.044 06/04/2014 Hera CGKBS00996968014 JNE Jebus, Bangka Belitung
1.043 06/04/2014 Kurniati CGKBS00996958214 JNE Bandar Lampung
1.042 05/04/2014 Eliza 021162648 POS Rantau Prapat, Sumatera Utara
1.041 05/04/2014 Nina CGKAP00707392114 JNE Cikarang, Jawa Barat
1.040 05/04/2014 Rini CGKAP00707921114 JNE Padangratu, Lampung
1.039 05/04/2014 Nurhasanah CGKAP00707423114 JNE Bekasi, Jawa Barat
1.038 05/04/2014 Tanti CGKAP00707403514 JNE Depok, Jawa Barat
1.037 02/04/2014 Dina CGKAP00695471314 JNE Semarang, Jawa tengah
1.036 05/04/2014 Fauziah CGKAP00707413314 JNE Surabaya, Jawa Timur
1.035 05/04/2014 Uweng CGKAP00707552114 JNE Palembang, Sumatera Selatan
1.034 05/04/2014 Mifta CGKBP01613922214 JNE Sidoarjo, Jawa Timur
1.033 05/04/2014 Bunda Dina CGKBP01613951614 JNE Surabaya, Jawa Timur
1.032 05/04/2014 Enong CGKBP01613941814 JNE Purwakarta, Jawa Barat
1.031 05/04/2014 Bu Lia CGKBP01613971214 JNE Bandung, Jawa Barat
1.030 05/04/2014 Angela CGK9J00340773814 JNE Cibubur, Jawa Barat
1.029 02/04/2014 Evi CGKAP00704922014 JNE Jakarta
1.028 04/04/2014 Ghofur CGKAP00704912214 JNE Jakarta
1.027 04/04/2014 Sunarti CGKAP00704881214 JNE Malang, Jawa Timur
1.026 03/04/2014 Heri CGKAP00699052114 JNE Pekalongan, Jawa tengah
1.025 03/04/2014 Sri CGKAP00699919314 JNE Medan Tembung, Sumatera Utara
1.024 03/04/2014 Aimatul CGKAP00699909514 JNE Kediri, Jawa Timur
1.023 03/04/2014 La Amba CGKAP00699071714 JNE Kendari, Sulawesi Tenggara
1.022 03/04/2014 Emmi CGKAP00699091314 JNE Sumedang, Jawa Barat
1.021 02/04/2014 Dina CGKAP00695471314 JNE Semarang, Jawa tengah
1.021 02/04/2014 Dina CGKAP00695471314 JNE Semarang, Jawa tengah
1.020 02/04/2014 Zaini CGKAP00695502314 JNE Jember, Jawa Timur
1.019 02/04/2014 Omar CGKAP00695541514 JNE Pontianak, Kalimantan Barat
1.018 02/04/2014 Siti CGKAP00695580714 JNE Purworejo, Jawa Timur
1.017 02/04/2014 Vebri CGKAP00695611714 JNE Bantul, Jawa Tengah
1.016 02/04/2014 Diah CGKAP00695631314 JNE Kendal, Jawa Tengah
1.015 02/04/2014 Rahmat CGKAP00695660714 JNE Palembang, Sumatera Selatan
1.014 02/04/2014 Yopi 021162416 POS Singkawang, Kalimantan Barat
1.013 01/04/2014 Novan CGKAP00685461714 JNE Pangkal Pinang, Babel
1.012 01/04/2014 Sesaria CGKAP00685451914 JNE Tulungagung, Jawa Timur
1.011 01/04/2014 Yattu CGKAP00685481314 JNE Kualatungkal, Jambi
1.010 01/04/2014 Nicky CGKAP00685512314 JNE Bitung, Sulawesi Utara
1.009 01/04/2014 Damayanti CGKAP00684063614 JNE Depok, Jawa Barat
1.008 01/04/2014 Ely CGKAP00684093014 JNE Bandar Lampung
1.007 01/04/2014 Siti CGKAP00684114214 JNE Cikarang, Jawa Barat
1.006 01/04/2014 Reska CGKAP00684143614 JNE Sumedang, Jawa Barat
1.005 01/04/2014 Aseh CGKAP00684182814 JNE Cikarang, Jawa Barat
1.004 01/04/2014 Indah CGKAP00684163214 JNE Jakarta
1.003 31/03/2014 Tri CGKBP01574940714 JNE Bekasi, Jawa Barat
1.002 31/03/2014 Raras CGKBP01574930914 JNE Surabaya, Jawa Timur
1.001 31/03/2014 Mia CGKBP01574960314 JNE Ciledug, Banten
1.000 30/03/2014 Yuli CGKBS00968500814 JNE Kendal, Jawa Tengah
999 30/03/2014 Fransisca CGKBS00968510614 JNE Gresik, Jawa timur
998 29/03/2014 Meggi CGK9J00335254914 JNE Tanjung Uban, Riau
997 29/03/2014 Atiek CGK9J00335245114 JNE Semarang, Jawa tengah
996 29/03/2014 Andi CGK9J00335264714 JNE Bandar Lampung
995 28/03/2014 Anik CGK9J00334444614 JNE Purwodadi, Jawa Tengah
994 28/03/2014 Elly CGKAP00680553014 JNE Kediri, Jawa Timur
993 28/03/2014 Hestina CGKAP00680543214 JNE Banyumas, Jawa Tengah
992 28/03/2014 Ahmad CGKAP00680523614 JNE Purawakarta, Jawa Barat
991 28/03/2014 Yuliana CGKAP00680504014 JNE Sumai Barat, Riau
990 28/03/2014 Hermansyah CGKAP00680492614 JNE Sarolangun, Jambi
989 28/03/2014 Lidya CGKAP00680473014 JNE Lahat, Sumatera Selatan
988 27/03/2014 Frida CGKAP00676233014 JNE Bandung, Jawa Barat
987 27/03/2014 Martin CGKAP00676203614 JNE Bandung, Jawa Barat
986 27/03/2014 Mustika CGKAP00676172614 JNE Klari, Jawa Barat
985 27/03/2014 Galih CGKAP00676143214 JNE Depok, Jawa barat
984 27/03/2014 Titin CGKAP00676123614 JNE Nganjuk, Jawa Tengah
983 27/03/2014 Mega CGKAP00674143814 JNE Banjarmasin, Kalimantan Timur
982 27/03/2014 Ipah CGKAP00674063814 JNE Ciomas, Jawa Barat
981 27/03/2014 sTrilokasari CGKAP00674083414 JNE Bekasi, Jawa Barat
980 27/03/2014 Bunda Dina CGKAP00674104614 JNE Surabaya, Jawa Timur
979 27/03/2014 Siti Fatimah CGKAP00674124214 JNE Sei Baduk, Batam
978 26/03/2014 Sundariani CGKAP00671562714 JNE Abung Tengah, Lampung
977 26/03/2014 Yuli CGKAP00671543114 JNE Kendal, Jawa tengah
976 26/03/2014 Farida CGKAP00671552914 JNE Jakarta
975 26/03/2014 Esti CGKAP00671513714 JNE Slawi, Jawa Tengah
974 26/03/2014 Ida CGKAP00671523514 JNE Karawang, Jawa barat
973 26/03/2014 Risa CGKAP00671533314 JNE Weleri, Jawa tengah
972 26/03/2014 Yuyun CGKAP00671582314 JNE Pemalang, Jawa Tengah
971 26/03/2014 Ningsih CGKAP00671603514 JNE Jakarta
970 26/03/2014 Diah CGKAP00669042914 JNE Makassar, Sulawesi Selatan
969 26/03/2014 Riska CGKAP00668998614 JNE Karawang, Jawa Barat
968 26/03/2014 Diki CGKAP00669023314 JNE Semarang, Jawa Tengah
967 26/03/2014 Omar CGKAP00669062514 JNE Pontianak, Kalimantan Barat
966 26/03/2014 Evi 021162231 POS Langsa, Aceh
965 25/03/2014 Aseh CGKAH01037753214 JNE Cikarang, Jawa Barat
964 25/03/2014 Joko CGKAH01037723814 JNE Boyolali, Jawa Tengah
963 25/03/2014 Suntika Yuda CGKAH01037743414 JNE Batam, Kep. Riau
962 25/03/2014 Yopi 021162181 POS Singkawang, Kalimantan Barat
961 24/03/2014 Sansan CGKAP00660115814 JNE Jakarta
960 24/03/2014 Sugiono CGKAP00660135414 JNE Nganjuk, Jawa Timur
959 24/03/2014 Sunarti CGKAP00660155014 JNE Indramayu, Jawa Barat
958 24/03/2014 Wiyanah CGKAP00660174614 JNE Balikpapan, Kalimantan Timur
957 24/03/2014 Kahfi CGKAP00658490814 JNE Singkawang, Kalimantan Barat
956 24/03/2014 Desy CGKAP00658471214 JNE Kepanjen, Jawa Timur
955 24/03/2014 Sri CGKAP00658451614 JNE Batam, Kep. Riau
954 24/03/2014 Indah CGKAP00658441814 JNE Kota Banjar, Jawa Barat
953 24/03/2014 Fatma CGKAP00658432014 JNE Magetan, Jawa Timur
952 24/03/2014 Sakdiyah CGKAP00658412414 JNE Bangkalan, Madura
951 22/03/2014 Evi 021162063 POS Payabujuk Tunong, Aceh
950 22/03/2014 Sunarti CGKAP00655970114 JNE Jakarta
949 22/03/2014 Rahma CGKAP00655960314 JNE Banda Aceh, NAD
948 22/03/2014 Jona CGKAP00655940714 JNE Cikampek, Jawa Barat
947 22/03/2014 Lietha CGKAP00655999714 JNE Jakarta
946 22/03/2014 Dedih CGKAP00655989914 JNE Bandung, Jawa Barat
945 21/03/2014 Sunarti CGKAP00651025914 JNE Indramayu, Jawa Barat
944 21/03/2014 Uweng CGKAP00651035714 JNE Palembang, Sumatera Selatan
943 21/03/2014 Ana CGKAP00651016114 JNE Kepanjen, Jawa Timur
942 21/03/2014 Ria CGKAP00650952014 JNE Sumedang, Jawa Barat
941 21/03/2014 Aty CGKAP00650981414 JNE Tigaraksa, Banten
940 21/03/2014 Elis CGKAP00650971614 JNE Malang, Jawa Barat
939 21/03/2014 Ernida CGKAP00651006314 JNE Jakarta
938 21/03/2014 Yudhistira CGKAP00652931814 JNE Manggar, Riau
937 19/03/2014 Riyan CGK9J00322754014 JNE Cikarang, Jawa Barat
936 19/03/2014 Istikasari CGK9J00322744214 JNE Pilngsari, Jawa Barat
935 18/03/2014 Nurliana CGKAP00637403314 JNE Balikpapan, Klaimnatan Timur
934 18/03/2014 Sarah CGKAP00637391914 JNE Jakarta
933 18/03/2014 Soerya CGKAP00637382114 JNE Denpasar, Bali
932 18/03/2014 Lila CGKAP00637422914 JNE Jakarta
931 18/03/2014 Omar CGKAP00637432714 JNE Pontianak, Kalimantan Barat
930 17/03/2014 Yetty CGKAP00629371914 JNE Bandung, Jawa Barat
929 17/03/2014 Ajat CGKAP00629242914 JNE Tigaraksa, Jawa Barat
928 17/03/2014 Alexs CGKAP00629252714 JNE Surabaya, Jawa Timur
927 17/03/2014 Virginia CGKAP00629322914 JNE Surabaya, Jawa Timur
926 17/03/2014 Samhudi CGKAP00629291914 JNE Cimanggis, Jawa Barat
925 17/03/2014 Indah CGKAP00629272314 JNE Banjar, Jawa Barat
924 16/03/2014 Linda CGKBP01489849814 JNE Pontianak, Kalimantan Barat
923 16/03/2014 Wina CGKBP01489859614 JNE Cirebon, Jawa Barat
922 15/03/2014 Yayang CGKAH01005196014 JNE Citeureup, Jawa Barat
921 15/03/2014 Heni CGKAH01005186214 JNE Jombang, Jawa Timur
920 15/03/2014 Melati Cahya CGKAH01005176414 JNE Semarang, Jawa Tengah
919 15/03/2014 Muldy 021694712 POS Timika, Papua
918 14/03/2014 Dessy CGKAP00622205814 JNE Malang, Jawa Timur
917 14/03/2014 Arna CGKAP00622245014 JNE Watampone, Sulawesi Selatan
916 14/03/2014 Apri CGKAP00622225414 JNE Cikarang, Jawa Barat
915 14/03/2014 Riyanardiyan CGKAP00622215614 JNE Cikarang, Jawa Barat
914 14/03/2014 Dina CGKAP00624572614 JNE Surabaya, Jawa Timur
913 14/03/2014 Ina CGKAP00624543214 JNE Bandung, Jawa Barat
912 14/03/2014 Anwar CGKAP00624513814 JNE Cirebon, Jawa Barat
911 13/03/2014 Ais EE 155614425 ID EMS Shizuoka, Jepang
910 13/03/2014 Dita CGKAH00996301614 JNE Bantul, Yogyakarta
909 13/03/2014 Nuraini CGKAP00617950714 JNE Singkawang, Kalimantan Barat
908 13/03/2014 Yetty CGKAP00618602614 JNE Bandung, Jawa Barat
907 13/03/2014 Samira CGKAP00618581414 JNE Martapura, Kalimantan Selatan
906 13/03/2014 Sri CGKAP00618641814 JNE Ciamis, Jawa Barat
905 12/03/2014 Desi CGK9J00315544314 JNE Dumai, Riau
904 12/03/2014 Iva CGK9J00315554114 JNE Jakarta
903 12/03/2014 Kahfi CGKAP00613404914 JNE Singkawang, Kalimantan Barat
902 12/03/2014 Haniah CGKAP00613393514 JNE Tenggarong, Kalimantan Timur
901 12/03/2014 Wina CGKAP00613373914 JNE Ciledug, Banten
900 12/03/2014 Anggraeni CGKAP00613383714 JNE Cileungsi, Jawa Barat
899 11/03/2014 Nunu CGKAP00610554414 JNE Makassar, Sulawesi Selatan
898 11/03/2014 Maswari CGKAP00610583814 JNE Madura, Jawa Timur
897 11/03/2014 Ida CGKAP00610614814 JNE Sleman, Yogyakarta
896 11/03/2014 Lya CGKAP00610644214 JNE Hulu Sungai, Kalimantan Selatan
895 11/03/2014 Suzie CP 003231697 ID POS Negeri Sembilan, Malaysia
894 10/03/2014 Yetty CGKAP00603454114 JNE Bandung, Jawa Barat
893 10/03/2014 Erti CGKAP00603424714 JNE Majalengka, Jawa Barat
892 10/03/2014 Damayanti CGKAP00603534114 JNE Cimanggis, Jawa Barat
891 10/03/2014 Fauziah CGKAP00603514514 JNE Sumedang, Jawa Barat
890 10/03/2014 Ana CGKAP00603483514 JNE Pakisaji, Jawa Timur
889 10/03/2014 Suzie CP 003231683 ID POS Negeri Sembilan, Malaysia
888 09/03/2014 Epri CGKBP01452194314 JNE Cilacap, Jawa Tengah
887 09/03/2014 Sofi CGKBP01452184514 JNE Jakarta
886 07/03/2014 Suci CGKAP00594690814 JNE Sausu, Sulawesi Tengah
885 07/03/2014 Kasman CGKAP00594681014 JNE Cianjur, Jawa Barat
884 05/03/2014 Sayekti CGKAP00584602814 JNE Bojonegoro, Jawa tengah
883 05/03/2014 Siti CGKAP00584612614 JNE Jatiluhur, Jawa barat
882 05/03/2014 Sayono CGKAP00584622414 JNE Jakarta
881 04/03/2014 Rudianto CGKBP01424373914 JNE Jakarta
880 04/03/2014 Rohayanti CGKBP01424344514 JNE Tigaraksa, Banten
879 04/03/2014 Omar CGKBP01424184514 JNE Pontianak, Kalimantan Barat
878 04/03/2014 Lila CGKBP01424404914 JNE Jakarta
877 04/03/2014 Yetty CGKBP01424155114 JNE Bandung, Jawa Barat
876 04/03/2014 Nurbaya CGKBP01424244914 JNE Makassar, Sulawesi Selatan
875 04/03/2014 Suryani CGKBP01424274314 JNE Cikarang, Jawa Barat
874 04/03/2014 Galih CGKBP01424305314 JNE Depok, Jawa Barat
873 04/03/2014 Erti CGKBP01424215514 JNE Majalengka, Jawa Barat
872 04/03/2014 Keke CGKAP00577332714 JNE Sleman, Yogyakarta
871 04/03/2014 Anita CGKAP00577322914 JNE Silalas, Sumatera Utara
870 04/03/2014 Winda CGKAP00577313114 JNE Padang, Sumatera Barat
869 04/03/2014 Lisa CGKAP00577303314 JNE Purwakarta, Jawa Barat
868 03/03/2014 Ika CGKAP00573771514 JNE Kisaran, Sumatera Utara
867 01/03/2014 Patmawati CGKAP00569570714 JNE Abepura, Papua
866 01/03/2014 Rahma CGKBP01402923514 JNE Makassar, Sulawesi Selatan
865 01/03/2014 Lisna CGKAH00950523014 JNE Purwakarta, Jawa Barat
864 01/03/2014 Yetih CGKAP00569560914 JNE Gn. Putri, Bogor
863 28/02/2014 Eem CGKAP00566044214 JNE Baros, Banten
862 28/02/2014 Senny CGKAP00566063814 JNE Pangandaran, Jawa Barat
861 28/02/2014 Nahida CGKAP00566073614 JNE Mataram, N T B
860 28/02/2014 Moudy CGKAP00566083414 JNE Buol, Sulawesi Tengah
859 28/02/2014 Nci CGKAP00566054014 JNE Teluk Betung, Lampung
858 27/02/2014 Karti CGKAP00563404314 JNE Jakarta
857 27/02/2014 Nelda CGKAP00563383114 JNE Palembang, Sumatera Selatan
856 27/02/2014 Fransisca CGKAP00563314514 JNE Gresik, Jawa Timur
855 27/02/2014 Lia CGKAP00563283514 JNE Purwakarta, Jawa Barat
854 27/02/2014 Pipiet CGKAP00563334114 JNE Serang, Banten
853 27/02/2014 Dwi CGKAP00563353714 JNE Cilegon, Jawa Barat
852 26/02/2014 Rafidah 020179690243 TIKI Bangkinang, Riau
851 26/02/2014 Suhanda CGKAP00559889514 JNE Cibinong, Jawa Barat
850 26/02/2014 Lila CGKAP00559920314 JNE Jakarta
849 26/02/2014 Galih CGKAP00559979314 JNE Depok, Jawa Barat
848 26/02/2014 Irfan CGKAP00559959714 JNE Cisarua, Jawa Barat
847 25/02/2014 Surianti CGKAP00553941714 JNE Bone, Sulawesi Selatan
846 25/02/2014 Farah CGKAP00553902514 JNE Malang, Jawa Timur
845 25/02/2014 Hasibuan CGKAP00553951514 JNE Jakarta
844 24/02/2014 Omar CGKAP00544304814 JNE Pontianak, Kalimantan Selatan
843 24/02/2014 Siswono CGKAP00544293414 JNE Jakarta
842 24/02/2014 Pipiet CGKAP00544283614 JNE Serang, Banten
841 24/02/2014 Ida CGKAP00547702314 JNE Karawang, Jawa Barat
840 24/02/2014 Erti CGKAP00547681114 JNE Majalengka, Jawa Barat
839 24/02/2014 Hestina CGKAP00547741514 JNE Banyumas, Jawa tengah
838 24/02/2014 Sakdiyah CGKAP00547721914 JNE Bangkalan, Jawa Timur
837 22/02/2014 Tri CGKBP01362055714 JNE Senapelan, Riau
836 22/02/2014 Nurdiani CGKBP01362026314 JNE Ambon, Maluku
835 22/02/2014 Donil CGKBP01362094914 JNE Pekanbaru, Riau
834 22/02/2014 Yhana CGKAP00543016114 JNE Pelanbaru, Riau
833 22/02/2014 Nila CGKAP00543006314 JNE Makassar, Sulawesi Selatan
832 22/02/2014 Esti CGKAP00542991214 JNE Magelang, Jawa tengah
831 21/02/2014 Nita CGKAP00540882414 JNE Banyuwangi, Jawa Timur
830 21/02/2014 Heni CGKAP00540892214 JNE Cikarang, Jawa Barat
829 21/02/2014 Samhudi CGKAP00540862814 JNE Cimanggis, Jawa Barat
828 21/02/2014 Iva CGKAP00540952614 JNE Jakarta
827 21/02/2014 Shanty CGKAP00540923214 JNE Jakarta
826 20/02/2014 Kartika CGKAP00537292714 JNE Jakarta
825 20/02/2014 Esti CGKAP00537243714 JNE Pati, Jawa Tengah
824 20/02/2014 Lia CGKAP00537253514 JNE Purwakarta, Jawa Barat
823 20/02/2014 Humaeroh CGKAP00537273114 JNE Cibinong, Jawa Barat
822 20/02/2014 Erti CGKAP00537282914 JNE Majalengka, Jawa Barat
821 20/02/2014 Rizal CGK9J00295283514 JNE Tj. Pinang, Riau
820 20/02/2014 Sulistyowati CGK9J00295334114 JNE Depok, Jawa Barat
819 19/02/2014 Nashwa CGKAP00530913614 JNE Manado, Sulawesi Utara
818 19/02/2014 Ivah CGKAP00533305314 JNE Jakarta
817 19/02/2014 Pipit CGKAP00533274314 JNE Serang, Banten
816 19/02/2014 Luluk CGKAP00533205714 JNE Sidoarjo, Jawa Timur
815 19/02/2014 Eni CGKAP00533244914 JNE Cikarang, Jawa Barat
814 19/02/2014 Een CGKAP00533254714 JNE Cirebon, Jawa Barat
813 19/02/2014 Hiang CGKAP00530933214 JNE Jakarta
812 19/02/2014 Luthie CGKAP00530923414 JNE Gunung Putri, Jawa Barat
811 18/02/2014 Putri CGKAP00528343214 JNE Denpasar, Bali
810 18/02/2014 Mai CGKAP00528362814 JNE Denpasar, Bali
809 18/02/2014 Omar CGKAP00528382414 JNE Pontianak, Kalimantan Barat
808 17/02/2014 Rani CGKAP00523543914 JNE Cisarua, Jawa Barat
807 17/02/2014 Dewi CGKAP00523553714 JNE Medan, Sumatera Utara
806 17/02/2014 Linda CGKAP00523504714 JNE Banjarmasin, Kalimantan Selatan
805 17/02/2014 Diah CGKAP00523514514 JNE Jakarta
804 17/02/2014 Rachma CGKAP00523524314 JNE Semarang, Jawa Tengah
803 17/02/2014 Ambran CGKAP00521126514 JNE Lumajang, Jawa Timur
802 17/02/2014 Wulandari CGKAP00521106914 JNE Jakarta
801 17/02/2014 Dewi CGKAP00521136314 JNE Medan, Sumatera Utara
800 16/02/2014 Rahma CGKAP00408523614 JNE Jakarta
799 16/02/2014 Dhenurul CGKAP00408543214 JNE Jakarta
798 16/02/2014 Mimi CGKAP00408504014 JNE Praya, Nusa Tenggara Barat
797 16/02/2014 Resimin CGKAP00408553014 JNE Jakarta
796 16/02/2014 Pauline CGKAP00408482814 JNE Banyuwangi, Jawa Timur
795 14/02/2014 Aziz CGKBP01176025714 JNE Bekasi, Jawa Barat
794 14/02/2014 Nurhayati CGKBP01175922414 JNE Jakarta
793 14/02/2014 Nabila CGKBP01175942014 JNE Surabaya, Jawa Timur
792 14/02/2014 Niken CGKBP01175951814 JNE Klaten, Jawa Tengah
791 14/02/2014 Umar CGKBP01175971414 JNE Cikarang, Jawa Barat
790 14/02/2014 Vella CGKBP01175991014 JNE Sarolangun, Jambi
789 14/02/2014 Madya CGK9J00288981014 JNE Jombang, Jawa Timur
788 13/02/2014 Ruswanto CGKAP00513813514 JNE Purbalingga, Jawa Tengah
787 13/02/2014 Ocha CGKAP00513823314 JNE Lebak Bandung, Jambi
786 12/02/2014 Febritha CGKAP00509751514 JNE Ternate, Maluku Utara
785 12/02/2014 Alya CGKAP00509741714 JNE Jakarta
784 11/02/2014 Indah CGKAP00503991714 JNE Banjar, Jawa Barat
783 10/02/2014 Dian CGK9J00284991014 JNE Depok, Jawa Barat
782 10/02/2014 Sri CGK9J00285006114 JNE Batam, Riau
781 10/02/2014 Widya CGK9J00283514514 JNE Bekasi, Jawa Barat
780 10/02/2014 Olivia CGK9J00285025714 JNE Mekarsari, Jawa Barat
779 10/02/2014 Duwi CP 005307844 ID POS Slanggor, Malaysia
778 07/02/2014 Ismiyati CGKAP00489142914 JNE Kotamobagu, Sulawesi Utara
777 07/02/2014 Abdul CGKAP00489182114 JNE Bekasi, Jawa Barat
776 07/02/2014 Yetty CGKAP00488082814 JNE Bandung, Jawa Barat
775 07/02/2014 Welinda CGKAP00488104014 JNE Banyuwangi, Jawa Timur
774 07/02/2014 Sity CGKAP00488092614 JNE Jakarta
773 06/02/2014 Tris CGKAP00485224114 JNE Jakarta
772 06/02/2014 Neni CGKAP00485263314 JNE Bekasi, Jawa Barat
771 06/02/2014 Dian CGKAP00485243714 JNE Cimanggis, Jawa Barat
770 06/02/2014 Yoety CGKAI00637502914 JNE Tigaraksa, Tangerang
769 05/02/2014 Yuliana CGKAP00477801714 JNE Jakarta
768 05/02/2014 Aty CGKAP00477780514 JNE Tangerang, Jawa Barat
767 05/02/2014 Febrita CGKAP00477751114 JNE Ternate, Maluku Utara
766 04/02/2014 Ibrahim EE 158529085 IS ID EMS Oman City, Oman
765 03/02/2014 Tien CGKAP00468083214 JNE Way Halim, Lampung
764 03/02/2014 Nurliana CGKAP00468114214 JNE Balikpapan, Kalimantan Timur
763 03/02/2014 Halim CGKAP00468073414 JNE Cibinong, Jawa Barat
762 02/02/2014 Imas CGKBP01257681814 JNE Cimahi, Jawa Barat
761 02/02/2014 Adinda CGKBP01256373514 JNE Cikarang, Jawa Barat
760 01/02/2014 Nia CGKAP00463732914 JNE Sukabumi, Jawa Barat
759 01/02/2014 Ayu CGKAP00463742714 JNE Malang, Jawa Timur
758 30/01/14 Areej EE158529222ID EMS Oman
757 30/01/2014 Rulie CGK9J00274006614 JNE Sidoarjo, Jawa Timur
756 30/01/2014 Indah CGK9J00274026214 JNE Banjar, Jawa Barat
755 29/01/2014 Nining CGKAP00457163714 JNE Mojokerto, Jawa Timur
754 29/01/2014 Yetty CGKAP00457173514 JNE Bandung, Jawa Barat
753 28/01/2014 Lina CGKAP00449631914 JNE Jakarta
752 27/01/2014 Evi CGKAP00443045914 JNE Sukoharjo, Jawa tengah
751 27/01/2014 Ruslan CGKAP00443075314 JNE Seberang Ulu, Sumatera Selatan
750 27/01/2014 Nelly CGKAP00443116114 JNE Cileungsi, Jawa Barat
749 27/01/2014 Yetty CGKAP00442942614 JNE Bandung, Jawa Barat
748 27/01/2014 Icha CGKAP00442981814 JNE Kutai Kertanegara, Kalimantan Timur
747 27/01/2014 Omar CGKAP00442962214 JNE Pontianak, Kalimantan Barat
746 27/01/2014 Iin CGKAP00442923014 JNE Bandung, Jawa Barat
745 27/01/2014 Eli CGKAP00443026314 JNE Purwodadi, Jawa Tengah
744 26/01/2014 Ayu CGKBP01221584614 JNE Bululawang, Jawa Timur
743 24/01/2014 Neni CGKAP00435871714 JNE Sorong, Papua
742 24/01/2014 Vella CGKAP00435881514 JNE Sarolangun, Jambi
741 24/01/2014 Tati CGKAP00435891314 JNE Mataram, N T B
740 24/01/2014 Restu CGKAP00435912514 JNE Ciomas, Jawa Barat
739 24/01/2014 Risesa CGKAP00435932114 JNE Padang, Sumatera Barat
738 24/01/2014 Lili CGKAP00435951714 JNE Brebes, Jawa Tengah
737 24/01/2014 PT. NISS CGKAP00435981114 JNE Puewakarta, Jawa Barat
736 24/01/2014 H. Amir CGKAP00436035414 JNE Tangerang, Banten
735 23/01/2014 Sarah CGKAH00813902114 JNE Boyolali, Jawa Tengah
734 23/01/2014 Sylvia CGKAP00427443514 JNE Batam, Riau
733 23/01/2014 Dwi CGKAP00427463114 JNE Serang, Banten
732 22/01/2014 Ade CGKAP00427423914 JNE Jakarta
731 20/01/2014 Agung CGKAP00423683114 JNE Banjarmasin, Kalimantan Selatan
730 20/01/2014 Suparmi CGKBP00423704314 JNE Jember, Jawa Timur
729 20/01/2014 Chairunnisa CGKAP00423743514 JNE Syah Kuala, Banda Aceh
728 20/01/2014 Hestina CGKAP00423723914 JNE Puwokerto, Jawa Tengah
727 20/01/2014 Naryon CGKBP01198841114 JNE Gorontalo
726 20/01/2014 Aang CGKBP01198870514 JNE Bandung, Jawa Barat
725 20/01/2014 Agus CGKBP01198850914 JNE Magelang, Jawa Tengah
724 20/01/2014 Ufik CGKBP01198821514 JNE Jakarta
723 20/01/2014 Fresti CGKBP01198790514 JNE Semarang, Jawa Tengah
722 18/01/2014 Hestina CGKBP01188851114 JNE Purwokerto, Jawa Tengah
721 18/01/2014 List CGKBP01188860914 JNE Jakarta
720 18/01/2014 Tina CGKBP01188880514 JNE Gresik, Jawa Timur
719 18/01/2014 Kimsy CGKBP01188811914 JNE Bekasi, Jawa Barat
718 18/01/2014 Rizky CGKBP01188821714 JNE Subang, Jawa Barat
717 18/01/2014 Annisa CGKBP01188841314 JNE Brebes, Jawa Tengah
716 17/01/2014 Ambarwati CP 005304851 ID POS Negeri Sembilan, Malaysia
715 17/01/2014 Fitri CGKAP00415315314 JNE Timika, Papua
714 17/01/2014 Apni CGKAP00415334914 JNE Muara Bangkahulu, Bengkulu
713 17/01/2014 Risa CGKAP00415354514 JNE Padalarang, Jawa Barat
712 17/01/2014 Ernawati CGKAP00415215714 JNE Magelang, Jawa Tengah
711 17/01/2014 Indah CGKAP00415225514 JNE Banjar, Jawa Barat
710 17/01/2014 Agus CGKAP00415254914 JNE Magelang, Jawa Tengah
709 17/01/2014 Nita CGKAP00415284314 JNE Sidoarjo, Jawa Timur
708 17/01/2014 Yosi CGKAP00415305514 JNE Bengkalis, Riau
707 17/01/2014 Nuria CGKAP00415325114 JNE Tembilahan, Riau
706 17/01/2014 Aty CGKAP00415344714 JNE Tangerang, Prop. Banten
705 16/01/2014 Rahma CGKAP00408523614 JNE Jakarta
704 16/01/2014 Dhenurul CGKAP00408543214 JNE Jakarta
703 16/01/2014 Jamilah CGKAP00408504014 JNE Jonggat, NTB
702 16/01/2014 Resimin CGKBP00408553014 JNE Jakarta
701 16/01/2014 Pauline CGKBP00408482814 JNE Banyuwangi, Jawa Timur
700 15/01/2014 A.Azis CGKBP01176025714 JNE Bekasi, Jawa Barat
699 15/01/2014 Nurhayati CGKBP01175922414 JNE Jakarta
698 15/01/2014 Nadila CGKBP01175942014 JNE Surabaya, Jawa Timur
697 15/01/2014 Niken CGKBP01175951814 JNE Klaten, Jawa Tengah
696 15/01/2014 Umar CGKBP01175971414 JNE Cibitung, Jawa Barat
695 15/01/2014 Vella CGKBP01175991014 JNE Sarolangun, Jambi
694 13/01/2014 Ruddin CGKAP00397542114 JNE Sumenep, Madura
693 13/01/2014 Yetty CGKAP00397481714 JNE Bandung, Jawa Barat
692 13/01/2014 Dwi CGKAP00397502914 JNE Serang, Banten
691 13/01/2014 Ristiyowati CGKAP00397532314 JNE Pati, Jawa Tengah
690 13/01/2014 Nurliana CGKAP00397551914 JNE Balikpapan, Klimantan Tengah
689 13/01/2014 Yamin CGKAP00397571514 JNE Gn. Putri, Jawa Barat
688 13/01/2014 Sumarno CGKAP00397581314 JNE Magelang, Jawa Tengah
687 13/01/2014 Epi CGKAP00397602514 JNE Bangung, Jawa Barat
686 13/01/2014 Ernawati CGKAP00397471914 JNE Magelang, Jawa Tengah
685 11/01/2014 Hj. Nunung CGKBP01157094414 JNE Suakaraja, Jawa Barat
684 11/01/2014 Ria CGKBP01157074818 JNE Jakarta
683 11/01/2014 Ristiyowaty CGKBP01157045414 JNE Pati, Jawa Tengah
682 11/01/2014 Meilani CGKBP01157065014 JNE Sako, Sumatera Selatan
681 11/01/2014 Linda CGKBP01157115614 JNE Indramayu, Jawa Barat
680 08/01/2014 Lely CGKAP00380355014 JNE Pekanbaru, Riau
679 08/01/2014 Lely CGKAP00380355014 JNE Pekanbaru, Riau
678 08/01/2014 Ria CGKAP00380345214 JNE Jakarta
677 08/01/2014 Didi CGKAP00380315814 JNE Medan, Sumatera Utara
676 04/01/2014 Agung CGKBP01114814514 JNE Banjarmasin, Kalimantan Selatan
675 04/01/2014 Aty CGKBP01114914114 JNE Tangerang, Jawa Barat
674 04/01/2014 Moar CGKBP01114892914 JNE Pontianak, Kalimantan Barat
673 04/01/2014 Wahyu CGKBP01114843914 JNE Kebumen, Jawa Tengah
672 03/01/2014 NENENG CGKAP00359223914 JNE Palembang, Sumatera Selatan
671 02/01/2014 Ninig CP 005303153 ID POS Malaysia
670 02/01/2014 Tri CGKAH00739550914 JNE Indramayu, Jawa Barat
669 02/01/2014 Nurlin CGKAH00739580314 JNE Banggai, Sulawesi Tengah
668 31/12/2013 Dani CGKBP01095524013 JNE Bandung, Jawa Barat
667 31/12/2013 Lia CGKBP01096424113 JNE Bekasi, Jawa Barat
666 27/12/13 Siti EE 158529050 ID EMS Malaysia
665 26/12/13 Wan 020179516033 TIKI Medan, Sumatera Utara
664 26/12/13 Omar CGKAP00339702713 JNE Pontianak, Kalimantan Barat
663 24/12/13 Vera CGKAP00332185613 JNE Yogyakarta
662 24/12/13 Choir CGKAP00332195413 JNE Jakarta
661 24/12/13 Linawati CGKAP00332166013 JNE Jambi
660 23/12/13 Linda CGKAP00326961813 JNE Jakarta
659 23/12/13 Dhiemaz CGKAP00326922613 JNE Kalidono, Sumatera Selatan
658 22/12/13 Luftiadi CGKBP01047384013 JNE Lembah Seulawah, Banda Aceh
657 22/12/13 Sri CGKBP01047393813 JNE Blitar, Jawa Timur
656 20/12/13 Suciati CGKAP00321664513 JNE Jakarta
655 20/12/13 Indah CGKAP00321605713 JNE Banjar, Jawa Barat
654 20/12/13 Yetty CGKAP00321564913 JNE Bandung, Jawa Barat
653 20/12/13 Siska CGKAP00321635113 JNE Padang, Sumatera Barat
652 18/12/13 Salmah 020179516033 TIKI Medan, Sumatera Utara
651 17/12/13 IIN CGKAP00305554313 JNE Bandung, Jawa Barat
650 13/12/13 Omar CGKAP00294563013 JNE Pontianak, Kalimantan Barat
649 11/12/13 Endang CGKBP00987321113 JNE Pekanbaru, Riau
648 11/12/13 Hartini CGKBP00987350513 JNE Samarinda, Kalimantan Timur
647 30/11/13 Rozie EE 158529386 ID EMS Singapore
646 09/12/13 Eldawati CGKAP00273704113 JNE Jambi
645 09/12/13 Shanty CGKAP00273633913 JNE Jakarta
644 09/12/13 Yana CGKAP00273653513 JNE Jakarta
643 09/12/13 Diana CGKAP00273663313 JNE Surabaya, Jawa Timur
642 09/12/13 Indah CGKAP00273682913 JNE Banjar, Jawa Barat
641 08/12/13 Herawati CGKBP00967659713 JNE Balikpapan, Kalimantan Timur
640 07/12/13 Indah CGKAP00230854413 JNE Banjar, Jawa Barat
639 07/12/13 Nana CGKAP00230883813 JNE Bekasi, Jawa Barat
638 06/12/13 Nurfasmita CGKAP00263653713 JNE Madura, Jawa Timur
637 06/12/13 Yunitasari CGKAP00263643913 JNE Pontianak, Kalimantan Barat
636 06/12/13 Shanty CGKAP00263624313 JNE Jakarta
635 04/12/13 Omar CGKAP00253355113 JNE Pontianak, Kalimantan Barat
634 04/12/13 Nasriah CGKAP00253345313 JNE Ulee Kareng, Banda Aceh
633 04/12/13 Ziya CGKAP00253335513 JNE Soreang, Jawa Barat
632 03/12/13 Rosani CGK9J00224724413 JNE Jakarta
631 30/11/13 Ais EE 158511399 ID EMS Shizuoka, Jepang
630 29/11/13 Eva CGKBP00917889313 JNE Kudus, Jawa Tengah
629 29/11/13 Yetty CGKBP00917859913 JNE Bandung, Jawa Barat
628 28/11/13 M. Ilyas CGKBP00913403713 JNE Watampone, Sulawesi Selatan
627 28/11/13 Lanita CGKBP00913392313 JNE Jakarta
626 28/11/13 Uyok CGKBP00913372713 JNE Sidoarjo, Jawa Tengah
625 28/11/13 Endang CGKBP00913353113 JNE Bekasi, Jawa Barat
624 28/11/13 Icha CGKBP00913413513 JNE Tenggarong, Kalimantan Timur
623 26/11/13 Ratna CGKAP00218991213 JNE Bandung, Jawa Barat
622 26/11/13 Annisa CGKAP00218981413 JNE Metro, Lampung
621 26/11/13 Titi CGKAP00218961813 JNE Solo, Jawa Tengah
620 26/11/13 Indah CGKAP00218971613 JNE Banjar, Jawa Barat
619 25/11/13 Apni CGKAP00214605413 JNE Bangkahulu, Bengkulu
618 23/11/13 Ibu Win CGKBP00882741013 JNE Jakarta
617 23/11/13 Yetty CGKBP00882721413 JNE Bandung, Jawa Barat
616 23/11/13 Diana CGKBP00882701813 JNE Surabaya, Jawa Timur
615 23/11/13 Insantama CGKBP00882690413 JNE Bogor, Jawa Barat
614 22/11/13 Dhienia CGK9J00216743613 JNE Bogor, Jawa Barat
613 21/11/13 Digna CGKBP00874162613 JNE Tarakan, Kalimantan Timur
612 21/11/13 Lulung CGKBP00874252413 JNE Tangerang, Jawa Barat
611 21/11/13 Anne CGKBP00874223013 JNE Semarang, Jawa Tengah
610 21/11/13 Eny CGKBP00874192013 JNE Magelang, Jawa Tengah
609 19/12/13 Henie CGK9J00213336313 JNE Jakarta
608 16/11/13 Yetty CGKBP00844382013 JNE Bandung, Jawa Barat
607 16/11/13 Rikard CGKBP00844362413 JNE Makassar, Sulawesi Selatan
606 16/07/13 Aree EE157801253ID EMS Oman
605 14/07/13 Alhammad EE158511558ID EMS Alfarouq, Saudi Arabia
604 13/11/13 Anna CGKAH00572742413 JNE Yogyakarta
603 13/11/13 Desi CGKAH00572752213 JNE Jakarta
602 13/11/13 Erni CGKAH00572762013 JNE Jakarta
601 13/11/13 Rindu CGKAH00572771813 JNE Bandar Lampung
600 12/11/13 Henry CGKAP00167283913 JNE Jakarta
599 12/11/13 Maria CGKAP00167293713 JNE Samarinda, Kalimantan Timur
598 12/11/13 Omar CGKAP00167305113 JNE Pontianak, Kalimantan Barat
597 10/11/13 Indah CGKBP00809969313 JNE Jakarta
596 10/11/13 Arlin CGKBP00809979113 JNE Kota Tengah, Gorontalo
595 09/11/13 Nico CGKBP00805821713 JNE Denpasar, Bali
594 09/11/13 Teta CGKBP00805841313 JNE Bekasi, Jawa Barat
593 09/11/13 Gita CGKBP00805851113 JNE Bekasi, Jawa Barat
592 09/11/13 Nadia CGKBP00805802113 JNE JeJeletung, Jambi
591 08/11/13 Indah CGK9J00205095913 JNE Banjar, Jawa Barat
590 07/11/13 Julaika CGKAP00149513913 JNE Tidung, Kalimantan Timur
589 07/11/13 Apni CGKAP00149523713 JNE Muara Bangkahulu, Bengkulu
588 06/11/13 Niken CGKAP00143804713 JNE Surabaya, Jawa Timur
587 06/11/13 Bety CGKAP00143824313 JNE Pontianak, Kalimantan Barat
586 05/11/13 Dewi CGKBP00784233013 JNE Punge Jurong, Banda Aceh
585 05/11/13 Angelia CGKBP00784242813 JNE Jakarta
584 04/11/13 Diah CGKAP00137075513 JNE Cilegon, Jawa Barat
583 04/11/13 Shelly CGKAP00137055913 JNE Denpasar, Bali
582 02/11/13 Vera CGKBS00472006413 JNE Bekasi, Jawa Barat
581 02/11/13 Citra CGKBS00472026013 JNE Jakarta
580 02/11/13 Yuni CGKAH00542891613 JNE Cianjur, Jawa Barat
579 01/11/13 Indra CGKAP00130286613 JNE Karawang, Jawa Barat
578 01/11/13 Emy CGKAP00130307813 JNE Jakarta
577 31/10/13 Marliana CGKAP00125833913 JNE Pangkal Pinang, BABEL
576 31/10/13 Ummu CGKAP00125824113 JNE Bogor, Jawa Barat
575 31/10/13 Joewono 946186208 POS Sentani, Papua
574 31/10/13 Kartikasari 946186209 POS Muarabungo, Jambi
573 30/10/13 Marlin CGK9J00197183713 JNE Cipondoh, Jawa Barat
572 30/10/13 Risni CGKAH00531007113 JNE Banjarbaru, Kalimantan Selatan
571 30/10/13 Ely CGKAH00530992013 JNE Gresik, Jawa Timur
570 30/10/13 Rismaya CGKAH00530982213 JNE Bogor, Jawa Barat
569 29/10/13 Essie CGK9J00196094213 JNE Jakarta
568 29/10/13 Bunda Lina CGKAP00115056913 JNE Jember, Jawa Tengah
567 29/10/13 Cut CGKAP00115066713 JNE Bekasi, Jawa Barat
566 29/10/13 Nuning CGKAP00115076513 JNE Jakarta
565 28/10/13 Vera CGKAP00110496013 JNE Bekasi, Jawa Barat
564 28/10/13 Indra CGKAP00110476413 JNE Karawang, Jawa Barat
563 28/10/13 Vivi CGK9J00195662713 JNE Jakarta
562 26/10/13 Rosalia CGK9J00194991213 JNE Malang, Jawa Timur
561 25/10/13 Nurhasanah CGKBP00737840513 JNE Jakarta
560 25/10/13 Devi CGKBP00737830713 JNE jakarta
559 25/10/13 Aty CGKBP00737860113 JNE Tangerang, Jawa Barat
558 23/10/13 Linda CGKAH00508652213 JNE Bengaklis, Riau
557 23/10/13 Sri CGKAH00508642413 JNE Sekampung Udik, Lampung
556 23/10/13 Omar CGKAH00508632613 JNE Pontianak, Kalimantan Barat
555 22/10/13 Irma CGKAH00504614213 JNE Sentul, Jawa Barat
554 22/10/13 Widya CGKAH00504563613 JNE Sumbawa Besar, NTB
553 22/10/13 Anita CGKAH00504583213 JNE Tangerang, Jawa Barat
552 19/10/13 Elda CGKAP00083593713 JNE LubukLinggau, Sumsel
551 17/10/13 Lucia CGK9J00188632613 JNE Kota Baru, Jambi
550 17/10/13 Omar 2330444450009 JNE Pontianak, Kalimantan Barat
549 17/10/13 Mahmudan 2330444460008 JNE Makassar, Sulawesi Selatan
548 16/10/13 Elyanti 2330444860006 JNE Karawang, Jawa Barat
547 16/10/13 Widya 2330444870005 JNE Sumbawa Besar, NTB
546 14/10/13 Omar CGKAP00071625513 JNE Pontianak, Kalimanatn Barat
545 14/10/13 Yulianti CGKAP00071635313 JNE Samarinda, Kalimantan Timur
544 14/10/13 Nurani CGKAP00071615713 JNE Jakarta
543 12/10/13 Murniasi CGKAP00070407013 JNE Madiun, Jawa Tengah
542 12/10/13 Apni Marlina CGKAP00070237213 JNE Muara Bangka, Bengkulu
541 12/10/13 Soraya CGK9J00185274313 JNE Pakjo, Palembang
540 11/10/13 Aphine 2330443260005 JNE Cinere, Depok
539 11/10/13 Niti 2330443250006 JNE Semarang, Jawa Tengah
538 11/10/13 Widyastuti 2330443240007 JNE Sukabumi, Lampung
537 11/10/13 Tri CGK9J00184194613 JNE Jakarta
536 11/10/13 Mala CGK9J00184792213 JNE Tambun, Jawa Barat
535 11/10/13 Tria CGK9J00184782413 JNE Cianjur, Jawa Barat
534 10/10/13 Nanag CGKAH00472293813 JNE Tualang, Riau
533 10/10/13 Yetty CGKAH00472225213 JNE Bandung, Jawa Barat
532 10/10/13 Dita CGKAH00472215413 JNE Bekasi, Jawa Barat
531 10/10/13 Lucia CGKAH00472235013 JNE Padang, Sumatera Barat
530 10/10/13 Ninna CGKAH00472284013 JNE Yogyakarta
529 10/10/13 Ipah CGKAH00472315013 JNE Subang, Jawa Barat
528 09/10/13 Nurliah 2330442140001 JNE Makassar, Sulawesi Selatan
527 09/10/13 Sumiroh 2330442130002 JNE Cilegon, Jawa Barat
526 09/10/13 Zainul 2330442120003 JNE Mojokerto, Jawa Tengah
525 09/10/13 Yanti 2330442110004 JNE Sidoarjo, Jawa Timur
524 09/10/13 Nova 2330442100005 JNE Batam, Riau
523 09/10/13 Raja 2330442090009 JNE Tangkerang, Pekanbaru
522 08/10/13 Omar 2330441690002 JNE Pontianak, Kalimantan Barat
521 08/10/13 Salwadi 2330441680003 JNE Kupang, N T T
520 08/10/13 Nurliah 2330441670004 JNE Makassar, Sulawesi Selatan
519 08/10/13 Rica 2330441660005 JNE Kediri, Jawa Timur
518 08/10/13 Tria 2330441650006 JNE Cianjur, Jawa Barat
517 07/10/13 Murniasih CGKBP00665571513 JNE Madiun, Jawa Tengah
516 07/10/13 Intan CGKBP00665612313 JNE Karawang, Jawa Barat
515 07/10/13 Asriani CGKBP00665602513 JNE Soppeng, Sulawesi
514 07/10/13 Rahmah CGKBP00665581313 JNE Cimanggis, Depok
513 05/10/13 Rumiani 2330440970006 JNE Palembang, Sumatera Selatan
512 05/10/13 Nur 2330440960007 JNE Pati, Jawa Tengah
511 04/10/13 M. Ilyas 2330440600002 JNE Watampone, Sulawesi Selatan
510 04/10/13 Iis 2330440610001 JNE Jakarta
509 03/10/13 Dewi 2330439890001 JNE Depok, Jawa Barat
508 03/10/13 Fitriana 2330439910006 JNE Samarinda, Kalimantan Timur
507 01/10/13 Endang 2311154540006 JNE Timika, Papua
506 01/10/13 Embun 2311154530007 JNE Sibolga, Sumatera Utara
505 28/09/13 Anti 916039732 POS Timika, Papua
504 27/09/13 Yetty 2311153640004 JNE Bandung, Jawa Barat
503 27/09/13 Niti 2311153630005 JNE Semarang, Jawa Tengah
502 26/09/13 Misrah 020175722838 TIKI Soroako, Sulawesi Selatan
501 26/09/13 Hesty CGK9J00173265313 JNE Depok, Jawa Barat
500 25/09/13 Jamilah CGK9J00172525213 JNE Palembang, Sumatera Selatan
499 24/09/13 Sri CGKAP00026156413 JNE Waingapu, NTT
499 24/09/13 Ayu CGKAP00026146613 JNE Samarinda, Kalimantan Timur
497 24/09/13 Heri CGKAP00026117213 JNE Bengkalis, Riau
496 24/09/13 Vivie CGKAP00026127013 JNE Bekasi, Jawa Barat
495 24/09/13 Astri CGK9J00171545113 JNE Bandung, Jawa Barat
494 24/09/13 Lulung Mumtaza CGK9J00171535313 JNE Pd. Aren, Banten
493 21/09/13 Nofriyanti 2311151420004 JNE Palembang, Sumatera Selatan
492 21/09/13 Sheila 2311151430003 JNE Gresik, Jawa Timur
491 20/09/13 Risa 2311151100005 JNE Kendal, Jawa Tengah
490 20/09/13 Wiwin 2311151090009 JNE Jakarta
489 20/09/13 Jamilah 2311151080000 JNE Palembang, Sumatera Selatan
488 19/09/13 Mila 2311150600001 JNE Tuban, Jawa Timur
487 19/09/13 Musaropah 2311150610000 JNE Bangko, Jambi
486 19/09/13 Komang CGK9J00168244413 JNE Denpasar, Bali
485 12/09/13 Kintan CGKAH00381325313 JNE Palembang, Sumatera Selatan
484 12/09/13 Mila CGKAH00381315513 JNE Tuban, Jawa Timur
483 12/09/13 Wiwiek CGKAH00375015713 JNE Tangerang, Banten
482 12/09/13 Annisa CGKAH00375025513 JNE Tanjung Pinang, Riau
481 12/09/13 Maryono CGKAH00374990813 JNE Batam, Kep. Riau
480 12/09/13 Musarropah CGKAH00375045113 JNE Bangko, Jambi
479 10/09/13 Fadrizal 2321555860009 JNE Kepanjen, Jawa Tengah
478 07/09/13 Nur EE 157485281 ID EMS Woodlands, Singapore
477 07/09/13 Hj. Jamilah CGKBS00341683713 JNE Simpang Kawat, Jambi
476 07/09/13 Ira CGKBS00341673913 JNE Plaju, Palembang
475 01/09/13 Widhi 2321551870002 JNE Bandung, Jawa Barat
474 01/09/13 Ina 2321551860003 JNE Semarang, Jawa Tengah
473 02/09/13 Lilis 2321551850004 JNE Jakarta
472 01/09/13 Erni 2321205180006 JNE Poleang Timur, Kalimantan
471 21/08/13 Erni 2301977790009 JNE Namlea, Maluku
470 21/08/13 Ulpatun 2301977780000 JNE Tegal, Jawa Tengah
469 21/08/13 Nurhayati 2301977770001 JNE Bojonggede, Jawa Barat
468 20/08/13 Vini CGKAH00303574513 JNE Depok, Jawa Barat
467 20/08/13 Jaya CGKAH00303594113 JNE Jakarta
466 20/08/13 Tyas CGKAH00303564713 JNE Jakarta
465 20/08/13 Devi CGKAH00303584313 JNE Kendal, Jawa Tengah
464 19/08/13 Ziya GCK9J00141993113 JNE Soreang, Bandung
463 19/08/13 Faizah CGK9J00142008213 JNE Gresik, Jawa Timur
462 16/08/13 Puguh CGK9J00141028113 JNE Bandar Lampung
461 16/08/13 Maria CGK9J00140874213 JNE Mojokerto, Jawa Timur
460 15/08/13 Riyanti CGK9J00140237413 JNE Jakarta
459 14/08/13 Titik Baron 2301975090002 JNE Solo, Jawa Tengah
458 06/08/13 Sri/Iwan CGKBP00505623713 JNE Danurejan, Yogyakarta
457 05/08/13 Febby 2317415390007 JNE Bogor, Jawa Barat
456 05/08/13 Enok 2317415410002 JNE Tangerang, Jawa Barat
455 05/08/13 Annetha 2317415400003 JNE Bogor, Jawa Barat
454 05/08/13 Yanti 2317415380008 JNE Sidoarjo, Jawa Timur
453 05/08/13 Amir 2317415420001 JNE Poliang Timur, Kalimantan Timur
452 05/08/13 Hilda 2317415430000 JNE Jakarta
451 04/08/13 Ummu CGKAH00285264113 JNE Bogor, Jawa Barat
450 04/08/13 Wintaryati CGKAH00285254313 JNE Depok, Jawa Barat
449 04/08/13 Fitriandi CGKAH00285234713 JNE Ambon, Maluku
448 02/08/13 Ismah 2289246610008 JNE Tulung Agung, Jawa Timur
447 02/08/13 Artufurida 2289246600009 JNE Majenang, Jawa Tengah
446 02/08/13 Mahendra 2289246590003 JNE 2289246590003
445 02/08/13 Purnama 2289246580004 JNE Surabaya, Jawa Timur
444 02/08/13 Ratnaningsih 2289246570005 JNE Tangerang, Banten
443 01/08/13 Anne CGKBS00277542913 JNE Tembalang, Jawa Tengah
442 01/08/13 Zainal CGKBS00277572313 JNE Surabaya, Jawa Timur
441 01/08/13 Kirey CGKBS00277562513 JNE Balikpapan, Kalimantan Timur
440 01/08/13 Martini CGKBS00277552713 JNE Ulee Kareng, Banda Aceh
439 01/08/13 Amalia 2317942540005 JNE Tangerang, Banten
438 01/08/13 Niken 2317942530006 JNE Surabaya, Jawa Timur
437 01/08/13 Rini 2317942560003 JNE P. Bun, Kalimantan Tengah
436 01/08/13 Budi 2317942570002 JNE Ponorogo, Jawa Timur
435 01/08/13 Yetty 2317942580001 JNE Bandung, Jawa Barat
434 01/08/13 Baron 2317942590000 JNE Solo, Jawa Tengah
433 01/08/13 Dewi 2317942600006 JNE Magetan, Jawa Timur
432 31/07/13 Yanti 2289245950006 JNE Sidoarjo, Jawa Timur
431 31/07/13 Komang 2289245940007 JNE Denpasar, Bali
430 31/07/13 Maya 2289245930008 JNE Nganjuk, Jawa Timur
429 31/07/13 Martin 2317609710000 JNE Pontianak, Kalimantan Barat
428 31/07/13 Cindy 2254798090004 JNE Jakarta
427 31/07/13 Susi 2254798060007 JNE Padang, Sumatera Barat
426 31/07/13 Ais EE 158511368 ID EMS Shizuoka, Japan
425 30/07/13 Tris 2318338510008 JNE Jakarta
424 30/07/13 Fitriana 2318338500009 JNE Samarinda Ilir, Kalimantan Timur
423 30/07/13 Yuseptiani 2318338490003 JNE Nganjuk, Jawa Timur
422 30/07/13 Sisca 2318338480004 JNE Telanaipura, Jambi
421 30/07/13 Sinta 2318338470005 JNE Magelang, Jawa Tengah
420 30/07/13 Susilowati 2318338460006 JNE Cirebon, Jawa Barat
419 30/07/13 Yanti 2317608560002 JNE Jakarta
418 30/07/13 Cindy 2317608550003 JNE Jakarta
417 30/07/13 Deni 2317608540004 JNE Klaten, Jawa Tengah
416 30/07/13 Zunaifa 2317608530005 JNE Mojokerto, Jawa Timur
415 30/07/13 Kartini CGKBS00267433713 JNE Cot Girek, Aceh
414 30/07/13 Mufhanayanti CGKBS00267414113 JNE Mamuju, Sulawesi Barat
413 30/07/13 Farida CGKBS00267562713 JNE Tj. Pinang, Riau
412 30/07/13 Khusnul CGKBS00267552913 JNE Lumajang, Jawa Timur
411 30/07/13 FItriapriani CGKBS00267463113 JNE Bandung, Jawa Barat
410 30/07/13 Wintaryati CGKBS00267383113 JNE Depok, Jawa Barat
409 30/07/13 Ira CGKBS00267492513 JNE Timika, Papua
408 30/07/13 Maria CGKBS00267513713 JNE Palembang, Sumatera Selatan
407 30/07/13 Akbari CGKBS00267523513 JNE Depok, Jawa Barat
406 30/07/13 Yossie CGKBS00267472913 JNE Jakarta
405 30/07/13 Rarak CGKBS00267443513 JNE Cibodas, Tangerang
404 27/07/13 Desneti 2318337230006 JNE Pekanbaru, Riau
403 27/07/13 Meyliza 2318337220007 JNE Serang, Banten
402 27/07/13 Baron 2318337210008 JNE Solo, Jawa Tengah
401 27/07/13 Dina 2318337200009 JNE Tangerang, Banten
400 27/07/13 Kirey 2318337190003 JNE Balikpapan, Klaimantan Timur
399 26/07/13 Jean 2318334760001 JNE Jakarta
398 26/07/13 Fitriana 2318334750002 JNE Samarinda Ilir, Kalimantan Timur
397 26/07/13 Niken 2318334740003 JNE Surabaya, Jawa Timur
396 26/07/13 Farah 2318334730004 JNE Jakarta
395 26/07/13 Rahmawati 2318334720005 JNE Koba, Kep. Bangka Belitung
394 26/07/13 Pina 2318334710006 JNE Sumedang, Jawa Barat
393 26/07/13 Nurtiasari 2318334700007 JNE Tangerang, Jawa Barat
392 26/07/13 Tris 2318334690001 JNE Jakarta
391 25/07/13 Wilda 2254784560009 JNE Jember, Jawa Timur
390 25/07/13 Usman 2254784570008 JNE Sidorajo, Jawa Timur
389 25/07/13 Gadirsyah 2254784580007 JNE Malinau, Kalimantan Timur
388 25/07/13 Soebagyo 2254784590006 JNE Yogyakarta
387 25/07/13 Melati 2254784600002 JNE Tegal, Jawa Tengah
386 25/07/13 Sari 2254784610001 JNE Sekupang, Riau
385 25/07/13 Nuria 2254784620000 JNE Tembilahan, Riau
384 25/07/13 Nani 2254784630009 JNE Jakarta
383 24/07/13 Jamal 2317605440000 JNE Bandung, Jawa Barat
382 24/07/13 Siska 2317605430001 JNE Mukomuko, Bengkulu
381 24/07/13 Vivie 2317605420002 JNE Bekasi, Jawa Barat
380 24/07/13 Nuria 2317605410003 JNE Tembilahan, Riau
379 24/07/13 Hiang Li 2317605400004 JNE Jakarta
378 24/07/13 Chichi 2254794800003 JNE Parit, Bangka Belitung
377 24/07/13 Ninda 2254794790007 JNE Jakarta
376 24/07/13 Anne 2254794780008 JNE Semarang, Jawa Tengah
375 24/07/13 Nunung 2254794770009 JNE Mataram, Nusa Tenggara Barat
374 24/07/13 Mohd. Awad 2254794760000 JNE Jakarta
373 24/07/13 Aisyah 2288190000002 JNE Adepura, Jayapura
372 24/07/13 Nurjanah 2288189990000 JNE Jakarta
371 24/07/13 Ernawati 2288189980001 JNE Tangerang, Jawa Barat
370 24/07/13 Wahyudi 2288189970002 JNE Sanggau, Kalimantan Barat
369 24/07/13 Hiang Li 2288189960003 JNE Jakarta
368 24/07/13 Nur Aisah 2288189950004 JNE Bojonggede, Jawa Barat
367 24/07/13 Rahmawati 2318325010009 JNE Sintang, Kalimantan Barat
366 23/07/13 Ibu Nita 2254499370009 JNE Sidoarjo, Jawa Timur
365 23/07/13 Enggar 2254499360000 JNE Labuai, Pekanbaru
364 23/07/13 Parsono 2254499350001 JNE Banjarnegara, Jawa Tengah
363 23/07/13 Hiang Li 2254499340002 JNE Jakarta
362 23/07/13 Vivi 2254499330003 JNE Depok, Jawa Barat
361 22/07/13 Yanti EE158511323ID EMS Shizuoka, Japan
360 22/07/13 Nur 2288186110005 JNE Sambas, Kalimantan Barat
359 22/07/13 Devy 2288186120004 JNE Gresik, Jawa Timur
358 22/07/13 Elis 2288186130003 JNE Sidoarjo, Jawa Timur
357 22/07/13 Fenty 2288186140002 JNE Solo, Jawa Tengah
356 22/07/13 Puji 2288186150001 JNE Magelang, Jawa Tengah
355 22/07/13 Hani 2288186160000 JNE Solo, Jawa Tengah
354 22/07/13 Ratnaningsih 2288186170009 JNE Tangerang, Jawa Barat
353 22/07/13 Ratna 2288186180008 JNE Tj. Enim, Riau
352 22/07/13 Hodijah 2288186190007 JNE Cileungsi, Jawa Barat
351 22/07/13 Nurul 2288186200003 JNE Depok, Jawa Barat
350 20/07/13 Dina 2288183680006 JNE Tenggarong, Kalimantan Timur
349 20/07/13 Lenni 2288183690005 JNE Bekasi, Jawa Barat
348 20/07/13 Farah 2288183700001 JNE Jakarta
347 20/07/13 Susan 2288183710000 JNE Bekasi, Jawa Barat
346 20/07/13 Mala 2288183720009 JNE Belitung, Bangka
345 20/07/13 Naning 2288183730008 JNE Surabaya, Jawa Timur
344 20/07/13 Yuni 2288183740007 JNE Cianjur, Jawa Barat
343 20/07/13 Ernawati 2288183750006 JNE Tangerang, Jawa Barat
342 20/07/13 Dyah 2288183760005 JNE Pamulang, Jawa Barat
341 19/07/13 Yanti 2317759140009 JNE Sidoarjo, Jawa Tengah
340 19/07/13 Rusnah 2317759130000 JNE Tangerang, Jawa Barat
339 19/07/13 Debi 2317759120001 JNE Bantul, Yogyakarta
338 19/07/13 Ratna 2317759110002 JNE Tj. Enim, Sumatera Selatan
337 19/07/13 Dara 2317759100003 JNE Jakarta
336 19/07/13 Hiang Li 2317759090007 JNE Jakarta
335 18/07/13 Sumarni 12982216680 POS Cikarang, Bekasi
334 18/07/13 Vivie 2254792930009 JNE Cikarang, Bekasi
333 18/07/13 Rina CGKBP00448950613 JNE Majalengka, Jawa Barat
332 18/07/13 Asiyatul CGKBP00448901613 JNE Temanggung, Jawa Tengah
331 18/07/13 Yuseptiani CGKBP00448880413 JNE Nganjuk, Jawa Tengah
330 18/07/13 Mufti CGKBP00448940813 JNE Bogor, Jawa Barat
329 18/07/13 Nury CGKBP00448960413 JNE Mekarsari, Jawa Barat
328 18/07/13 Suparwoto CGKBP00448999813 JNE Purbalingga, Jawa Barat
327 18/07/13 Vivi CGKBP00448981013 JNE Cilangkap, Jawa Barat
326 17/07/13 Vina CGKBP00445334313 JNE Pontianak, Kalimantan Selatan
325 17/07/13 Annisa CGKBP00445353913 JNE Banjar Agung, Lampung
324 17/07/13 Dewita CGKBP00445363713 JNE Batam, Kepulauan Riau
323 17/07/13 Hiang Li CGKBP00445314713 JNE Jakarta
322 17/07/13 Mala CGKBP00445304913 JNE Jakarta
321 17/07/13 Nuraeni CGKBP00445283713 JNE CIbinong, Jawa Barat
320 17/07/13 Yossie CGKBP00445383313 JNE Jakarta
319 17/07/13 Nurlasmini CGKBP00445404513 JNE Bandung, Jawa Barat
318 17/07/13 Mufti CGKBP00445264113 JNE Bogor, Jawa Barat
317 17/07/13 Anik 2254792320008 JNE Sidoarjo, Jawa Timur
316 17/07/13 Lilis 2254792310009 JNE Magelang, Jawa Tengah
315 17/07/13 Millah 2254792300000 JNE Bekasi, Jawa Barat
314 17/07/13 Wiwin 2254792350005 JNE Jakarta
313 16/07/13 Anie 2254497650004 JNE Tabalong, Kalimantan Selatan
312 16/07/13 Niken 2254497670002 JNE Surabaya, Jawa Timur
311 16/07/13 Nafsiah 2254497680001 JNE Demak, Jawa Tengah
310 16/07/13 Restanti 2254497690000 JNE Pekalongan, Jawa Tengah
309 16/07/13 Murtini 2254497710005 JNE Lubuk Linggau, Sumatera Selatan
308 16/07/13 Aida 2254497720004 JNE Makassar, Sulawesi Selatan
307 16/07/13 Fenty 2254497730003 JNE Solo, Jawa Tengah
306 16/07/13 Yonalia 2254497740002 JNE Kediri, Jawa Timur
305 16/07/13 Yeti 2254497750001 JNE Bima, NTB
304 15/07/13 Rachmah 2254496560007 JNE Martapura, Banjarmasin
303 15/07/13 Ela 2254496570006 JNE Sumedang, Jawa Barat
302 15/07/13 Yanti 2254496580005 JNE Sidoarjo, Jawa Timur
301 15/07/13 Hendro 2254496590004 JNE Banjarsari, Solo
300 15/07/13 Jarkanlansyah 2254496600000 JNE Barabai, Kalimantan Selatan
299 15/07/13 Hasan 2254496610009 JNE Sidoarjo, Jawa Timur
298 15/07/13 Linda 2254496620008 JNE Bengkalis, Riau
297 15/07/13 Dwi 2254496630007 JNE Situbondo, Jawa Timur
296 15/07/13 Ella 2254496640006 JNE Ampenan, NTB
295 15/07/13 Nuria 2254496650005 JNE Indra Hilir, Riau
294 15/07/13 Lucky 2254496660004 JNE Sukaraja, Cibinong
293 15/07/13 Elis 2254496670003 JNE Sidoarjo, Jawa Timur
292 15/07/13 Ricka 2254496680002 JNE Gn. Putri, Jawa Barat
291 15/07/13 Susan 2254496690001 JNE Pondok Gede, Bekasi
290 15/07/13 Ibu Ayu 2254496700007 JNE Jakarta
289 15/07/13 Nita 2254496710006 JNE Jakarta
288 13/07/13 Ella 2254496120003 JNE Tulang Bawang, Lampung
287 12/07/13 Riska 2289241900005 JNE Arut Selatan, Kalimantan Tengah
286 12/07/13 Subarna 2289241910004 JNE Cianjur, Jawa Barat
285 12/07/13 Lysa 2289241920003 JNE Medan, Sumatera Utara
284 12/07/13 Barelvi 2289241930002 JNE Jakarta
283 12/07/13 Novita 2289241940001 JNE Jakarta
282 12/07/13 Siti Nurani 2289241950000 JNE Jakarta
281 12/07/13 Riska 2289241960009 JNE Jakarta
280 11/07/13 Yossie 2285935040002 JNE Jakarta
279 11/07/13 Dwi 2285935030003 JNE Jakarta
278 11/07/13 Retno 2285935020004 JNE Mojokerto, Jawa Timur
277 11/07/13 Ria 2285935010005 JNE Kediri, Jawa Timur
276 11/07/13 Suryani 2285935000006 JNE Serpong, Banten
275 11/07/13 Chusnul 2254495220001 JNE Semarang, Jawa Tengah
274 10/07/13 Yossie 2239818710001 JNE Jakarta
273 10/07/13 Idhaniawati 2239818700002 JNE Ternate, Maluku Utara
272 10/07/13 Elis 2239818690006 JNE Sidoarjo, Jawa Timur
271 10/07/13 Meta 2239818680007 JNE Pekanbaru, Riau
270 10/07/13 Vivie 2239818670008 JNE Cikarang, Bekasi
269 10/07/13 Kesya 2239818660009 JNE Jimbaran, Bali
268 10/07/13 Suryani 2254787540008 JNE Serpong, Banten
267 10/07/13 Desi 2254787530009 JNE Jakarta
266 10/07/13 Yuli 2254787520000 JNE Mojokerto, Jawa Timur
265 10/07/13 Chikmatul 2254787510001 JNE Mojokerto, Jawa Timur
264 10/07/13 Niken 2254787500002 JNE Surabaya, Jawa Timur
263 10/07/13 Usman 2254787490006 JNE Mojokerto, Jawa Timur
262 10/07/13 Heril 2254787480007 JNE Malinau, Kalimantan Utara
261 10/07/13 Nanik 2254787470008 JNE Rantau, Kalimantan Selatan
260 10/07/13 Wiwin 2254787460009 JNE Jakarta
259 10/07/13 Hestina 2254787450000 JNE Purwokerto, Jawa Tengah
258 10/07/13 Agus 2254787440001 JNE Jakarta
257 10/07/13 Holilah 2254787430002 JNE Batu Ceper, Tangerang
256 10/07/13 Esty 2254787420003 JNE Jakarta
255 09/07/13 Yossie 2286732890005 JNE Jakarta
254 09/07/13 Aghy 2286732880006 JNE Sukabumi, Jawa Barat
253 09/07/13 Wiwin 2286732870007 JNE Jakarta
252 07/07/13 Dr. Ory 2254492880000 JNE Gorontalo, Sulawesi Utara
251 04/07/13 Nur’run 2286731000009 JNE Lamongan, Jawa Timur
250 04/07/13 Chici 2286730990004 JNE Bangka Barat, Kep. Babel
249 04/07/13 Nola 2286730980005 JNE Bengkalis, Riau
248 04/07/13 Ulan Toto 2289263970000 JNE Tangerang, Jawa Barat
247 04/07/13 Jubaedah 2289263960001 JNE Bandung, Jawa Barat
246 04/07/13 Eni 2289263950002 JNE Cikarang, Jawa Barat
245 04/07/13 Neni 2289263940003 JNE Bekasi, Jawa Barat
244 04/07/13 Agus 2289263930004 JNE Tj. Redeb, Kalimantan Timur
243 04/07/13 Nurlaila 2289263920005 JNE Bekasi, Jawa Barat
242 04/07/13 Yossie CGK9J00103456113 JNE Jakarta
241 03/07/13 Lina 2285927420003 JNE Jember, Jawa Timur
240 02/07/13 Meli 2285927430002 JNE Jakarta
239 03/07/13 Riska 2285927440001 JNE Jakarta
238 03/07/13 Adil 2285927450000 JNE Jakarta
237 03/07/13 Fitri 2254491190001 JNE Pontianak, Kalimantan Barat
236 03/07/13 Mira 2254491220005 JNE Salatiga, Jawa Tengah
235 03/07/13 Nurcahyati 2254491230004 JNE Samarinda, Kalimantan Timur
234 03/07/13 Zaen 2254491240003 JNE Mataram, N T B
233 02/07/13 Riska 2254490690007 JNE Arut Selatan, Kalimantan Tengah
232 02/07/13 Ollien 2254490680008 JNE Bandung, Jawa Barat
231 02/07/13 Sri 2254490720001 JNE Pekanbaru, Riau
230 02/07/13 Aida 2254490710002 JNE Makassar, Sulawesi Selatan
229 02/07/13 Maemunah 2254490700003 JNE Pabuaran, Jawa Barat
228 02/07/13 Heril 2254490730000 JNE Malinau, Kalimantan Timur
227 01/07/13 Vina 2254490000004 JNE Pontianak, Klaimantan Barat
226 01/07/13 Ocha 2254489990002 JNE Jambi
225 01/07/13 Lilis 2254489980003 JNE Magelang, Jawa tengah
224 28/06/13 Dewi 2289258880000 JNE Banjar Cirebon, Jawa Barat
223 28/06/13 Purwanti 2289258870001 JNE JPurbalingga, Jawa Tengah
222 28/06/13 Nurtisari 2289258860002 JNE Tangerang, Banten
221 28/06/13 Watmawati 2286728430000 JNE Bangkinang, Riau
220 28/06/13 Yuniar Dwi 2286728440009 JNE Solo, Jawa Tengah
219 27/06/13 Lisa 2285244000001 JNE Jakarta
218 27/06/13 Gina 2285243990006 JNE Cirebon, Jawa Barat
217 27/06/13 Heri 2285243980007 JNE Garut, Jawa Barat
216 27/06/13 Chintia CGKAH00162763813 JNE Rembang, Jawa tengah
215 27/06/13 Triningsih CGKAH00162664213 JNE Wonosari, Jawa tengah
214 27/06/13 Oke CGKAH00162674013 JNE Bandar Lampung
213 27/06/13 Jennine CGKAH00162714813 JNE Bandar Lampung
212 27/06/13 Yusuf CGKAH00162744213 JNE Maros, Sulawesi Selatan
211 27/06/13 Sari CGKAH00162705013 JNE Kendari, Sulawesi Tenggara
210 27/06/13 Pujianti CGKAH00162693613 JNE Jakarta
209 27/06/13 Yovita CGKAH00162683813 JNE Malang, Jawa Timur
208 26/06/13 Yossie 2254488660005 JNE Jakarta
207 25/06/13 Aisyah 2254488410006 JNE Abepura, Papua
206 25/06/13 Chintia 2254488400007 JNE Rembang, Jawa Tengah
205 22/06/13 Vina 2289143860001 JNE Pontianak, Kalimantan Barat
204 22/06/13 Noerma 2289143850002 JNE Cibinong, Bogor
203 21/06/13 Nuraswani 2289143200005 JNE Lhokseumawe, Aceh
202 21/06/13 Nuraswani 2289143200005 JNE Lhokseumawe, Aceh
201 21/06/13 Sri 2289143210004 JNE Tangerang, Banten
200 21/06/13 Nurtiasari 2289143220003 JNE Tangerang, Banten
199 20/06/13 Ocha 2154446340003 JNE Lebak Bandung, Jambi
198 20/06/13 Woro 2154446330004 JNE Malang, Jawa Timur
197 20/06/13 Dea 2154446320005 JNE Ngawi, Jawa Timur
196 19/06/13 Eva 2004328520002 JNE Sidoarjo, Jawa Tengah
195 19/06/13 Woro 2004328510003 JNE Malang, Jawa Timur
194 19/06/13 Amah 2004328530001 JNE Cilegon, Banten
193 19/06/13 Nurtiasari 2004328540000 JNE Tangerang, Banten
192 19/06/13 Maryono 2004328550009 JNE Jakarta
191 19/06/13 Lisa 2004328560008 JNE Jakarta
190 19/06/13 Linda 2254486060005 JNE Jakarta
189 19/06/13 Nurlatifah 2254486050006 JNE Surabaya, Jawa Timur
188 19/06/13 Nilayanti 2254486040007 JNE Ternate, Maluku Utara
187 19/06/13 Sri 2254486030008 JNE Jepara, Jawa Tengah
186 15/06/13 Salampessy 2123519900000 JNE Ambon, Maluku
185 15/06/13 Endang 2123519910009 JNE Medan Selayang, Sumatera Utara
184 15/06/13 Surya 2123519920008 JNE Kapuas Hulu, Kalimantan Barat
183 15/06/13 Kusbiantoro CGK9J00086971613 JNE Jakarta
182 12/06/13 Vivi 2287121760008 JNE Makassar, Sulawesi Selatan
181 12/06/13 Woro 2287121750009 JNE Malang, Jawa Timur
180 12/06/13 Susan 2287121740000 JNE Sidoardjo, Jawa Timur
179 12/06/13 Een 2287121730001 JNE Cikupa,Banten
178 11/06/13 Verawati 2123517710007 JNE Serang, Banten
177 11/06/13 Mayla 2123517700008 JNE Lampung
176 11/06/13 Lisa 2123517690002 JNE Jakarta
175 11/06/13 Lisaana 12982204664 POS Binjai, Sumatera Utara
174 07/06/13 Slamet Widodo 2123515530003 JNE Banjarmasin, Kalimantan Selatan
173 07/06/13 Dayinta 2123515500006 JNE Tembalang, Semarang, Jawa Tengah
172 04/06/13 Mardhayu 2154439930006 JNE Surabaya, Jawa Timur
171 04/06/13 Lia 2154439940005 JNE Mojokerto, Jawa Tengah
170 04/06/13 Dian 2154439950004 JNE Telanaipura, Jambi
169 04/06/13 Yeni 2154439960003 JNE Cileungsi, Bogor
168 31/05/13 Sri 2123513590009 JNE Makasar, Sulawesi Selatan
167 31/05/13 Yovan 2123513580000 JNE Kotabumi, Lampung
166 31/05/13 Dian 2123513560002 JNE Mempawah, Kalimantan Barat
165 31/05/13 Baiq 2123513570001 JNE Depok, Jawa Barat
164 31/05/13 Nini 2122703480007 JNE Sidoarjo, Jawa Tengah
163 31/05/13 Isnaeni 2122703490006 JNE Purwokerto, Jawa Tengah
162 31/05/13 Aisaful 2122703500002 JNE Salatiga, Jawa Tengah
161 31/05/13 Widiasari 2122703510001 JNE Cikarang, Jawa Barat
160 31/05/13 Wiwin 2122703520000 JNE Jakarta
159 28/05/13 Monica 2287367250004 JNE Tambun, Jawa Barat
158 28/05/13 Lestari 2287367240005 JNE Malang, Jawa Timur
157 24/05/13 Ani 2231831370002 JNE Padang, Sumatera Barat
156 24/05/13 Monica 2231831360003 JNE Tambun, Jawa Barat
155 24/05/13 Isnati 2231831350004 JNE Mojokerto, Jawa Timur
154 24/05/13 Putri 2231831340005 JNE Jakarta
153 24/05/13 Nirwana 2231831330006 JNE Palu, Sulawesi Tengah
152 24/05/13 Lilik 2231831320007 JNE Blitar, Jawa Timur
151 24/05/13 Dewita 2231831310008 JNE Batam, Kep. Riau
150 24/05/13 Endang 2231831300009 JNE Ciganjur, Depok
149 24/05/13 Chichi 2231831290003 JNE Mentok, Kep. Bangka Belitung
148 22/05/13 Surya 2231828730000 JNE Kapuas Hulu, Kalimantan Barat
147 22/05/13 Een 2231828720001 JNE Tangerang, Jawa Barat
146 22/05/13 Woro 2231828760007 JNE Malang, Jawa Timur
145 22/05/13 Monica 2231828740009 JNE Cikarang, Jawa Barat
144 22/05/13 Purwanti 2231828750008 JNE Purbalingga, Jawa Tengah
143 21/05/13 Titi 2244443800003 JNE Jakarta
142 20/05/13 Merry 2223748760007 JNE Bima, Nusa Tenggara Barat
141 20/05/13 Anthi 2223748770006 JNE Manado, Sulawesi Utara
140 20/05/13 Elvin 2223748780005 JNE Yogyakarta
139 20/05/13 Nurika 2223748790004 JNE Depok, Jawa Barat
138 17/05/13 Salina EE158511080ID EMS Johor, Malaysia
137 17/05/13 Riris 2245001960009 JNE Surabaya, Jawa Timur
136 17/05/13 Indah 2245001950000 JNE Semarang, Jawa Tengah
135 17/05/13 Rahmi 2245001940001 JNE Pulo Brayan, Medan
134 14/05/13 Aprilia 2231822110006 JNE Gamping, Sleman, Yogyakarta
133 14/05/13 Fitrianti 2231822100007 JNE Subang, Jawa Barat
132 14/05/13 Elwina 2231822090001 JNE Sungai Penuh, Jambi
131 14/05/13 Monica 2231822070003 JNE Cikarang, Bekasi
130 14/05/13 Angelina 2231822060004 JNE Sleman, Yogyakarta
129 14/05/13 Dimas 2231822050005 JNE Jakarta
128 11/05/13 Aisyah 2231821660007 JNE Abepura, Papua
127 11/05/13 Iis 2231821650008 JNE Pandeglang, Jawa Barat
126 11/05/13 Indah 2231821640009 JNE Semarang, Jawa Tengah
125 10/05/13 Karima 2123505750008 JNE Mojokerto, Jawa Tengah
124 08/05/13 Ayu 2244998100009 JNE Rantau Selatan, Sumatera Utara
123 08/05/13 Dian 2244998090003 JNE Telanaipura, Jambi
122 08/05/13 Dwi Sundari 2244998080004 JNE Giwangan, Yogyakarta
121 06/05/13 Aisyah 2223736030006 JNE Abepura, Jayapura, Papua
120 06/05/13 Yuliani 2223736020007 JNE Pekanbaru, Riau
119 06/05/13 Atin 2223736010008 JNE Surabaya, Jawa Timur
118 04/05/13 Melati 2004320940006 JNE Tegal, Jawa Tengah
117 04/05/13 Rofiqoh 2004320930007 JNE Rembang, Jawa Tengah
116 04/05/13 Dhta 2004320920008 JNE Padang, Sumatera Barat
115 04/05/13 Murtiningsih 2004320910009 JNE Palangkaraya, Kalimantan Tengah
114 04/05/13 Marlina 2004320900000 JNE Argamakmur, Bengkulu
113 04/05/13 Riana 2004320880005 JNE Medan, Umatera Utara
112 02/05/13 Edi 2161423000003 JNE Curug, Tangerang
111 02/05/13 Femy 2161422990008 JNE Bitung, Sulawesi Selatan
110 01/05/13 Indah 2161422190002 JNE Tapos, Depok, Jawa Barat
109 01/05/13 Sofia 2161422180003 JNE Pekanbaru, Riau
108 30/04/13 Aisyah 2161421730001 JNE Abepura, Jayapura, Papua
107 30/04/13 Tititn 2161421710003 JNE Padang, Sumatera Barat
106 30/04/13 Riris 2161421720002 JNE Surabaya, Jawa Timur
105 29/04/13 Ditta 2245264640007 JNE Sungai Serut, Bengkulu
104 29/04/13 Purwanti 2245264630008 JNE Purbalingga, Jawa Tengah
103 29/04/13 Hj. Ellis 2245264620009 JNE Bekasi, Jawa Barat
102 29/04/13 Isnati 2245264610000 JNE Mojokerto, Jawa Timur
101 29/04/13 Bpk. Edi 2161420990000 JNE Jakarta
100 29/04/13 Yenti 2161420980001 JNE Batam, Kep. Riau
99 29/04/13 Nilawati 2161420960003 JNE Sungai Penuh, Jambi
98 25/04/13 Riana 2161420320005 JNE Medan, Sumatera Utara
97 25/04/13 Sri Wahyuni 2161420310006 JNE Sekampung Udik, Lampung Timur
96 25/04/13 Amrina 2161420300007 JNE Jakarta
95 25/04/13 Iis Sumiati 2161420290001 JNE Cakranegara, NTB
94 25/04/13 Ibu Murti 2161420280002 JNE Palangkaraya, Kalimantan Tengah
93 23/04/13 Amel 2244991630008 JNE Banten
92 23/04/13 Faradilah 2244991620009 JNE Jakarta
91 23/04/13 Rantih 2244991610000 JNE Jakarta
90 23/04/13 Atiek 2244991600001 JNE Jakarta
89 20/04/13 Agus 2223424400005 JNE Gianyar, Bali
88 20/04/13 Faradilah 2223424410004 JNE Jakarta
87 20/04/13 Muchtar 2223424420003 JNE Jakarta
86 19/04/13 Alia 2141388040009 JNE Jakarta
85 19/04/13 Nonalita EE150474995ID EMS Singapore
84 18/04/13 M. Ashim 2161416810008 JNE Semarang, Jawa Tengah
83 18/04/13 Afriani 2161416800009 JNE Tj. Pinang, Kepulauan Riau
82 16/04/13 Icha 2223684290002 JNE Balikpapan, Kalimantan Timur
81 16/04/13 Eva 2223684300008 JNE Palembang, Sumatera Selatan
80 12/04/13 Ismaniar 2223682170009 JNE Cileungsi, Cibinong, Bogor
79 12/04/13 Nur 2223682180008 JNE Tahunan, Jepara, Jawa Tengah
78 12/04/13 Diana EE150474576ID EMS Georgia, USA
77 11/04/13 Anita 2223206790003 JNE Cileungsi, Cibinong, Bogor
76 11/04/13 Rita 2223206780004 JNE Semarang, Jawa Tengah
75 11/04/13 Erni 2223206770005 JNE Cileduk, Tangerang
74 11/04/13 Yuni 2223206760006 JNE Balikpapan, Kalimantan Timur
73 11/04/13 Antoni 2223206750007 JNE Medan, Sumatera Utara
72 08/04/13 Gita 2223202250006 JNE Palembang, Sumatera Selatan
71 08/04/13 Erlina 2223202260005 JNE Alang Lebar, Palembang
70 05/04/13 Nur 2223678480006 JNE Tahunan, Jepara, Jawa Tengah
69 03/04/13 Aditya 2223677440001 JNE Sukabumi, Jawa Barat
68 27/03/13 Nuryaningsih 2223675480009 JNE Semarang, Jawa Tengah
67 27/03/13 Melati 2223675490008 JNE Bogor, Jawa Barat
66 25/03/13 Varadilla 2188451450006 JNE Smarinda, Kalimantan Timur
65 25/03/13 Triana 2188451460005 JNE Grobogan, Jawa Tengah
64 25/03/13 Afinatisy 2188451470004 JNE Rajabasa, Bandar Lampung
63 25/03/13 Bia 2188451490002 JNE Jakarta
62 25/03/13 Titin 2188451480003 JNE Bekasi
61 13/03/13 Masayu 2187971220007 JNE Bandar Lampung
60 13/03/13 Fetria 2187971230006 JNE Jakarta
59 13/03/13 Rizqon 2187971240005 JNE Jakarta
58 13/03/13 M. Cholil 2187971250004 JNE Bekasi, Jawa Barat
57 04/03/13 Mira 2172784080009 JNE Bandung, Jawa Barat
56 02/03/13 Nuryaningsih 2183376370002 JNE Semarang, Jawa Tengah
55 02/03/13 Ari Budiastuti 2183376360003 JNE Padalarang, Jawa Barat
54 25/02/13 Ramlah 2188073360004 JNE Sekadau Hilir, Kalimantan Barat
53 25/02/13 Cutia 2188073350005 JNE Cibungbulang, Bogor
52 25/02/13 Rachmat 2188073340006 JNE Dompu, Nusa Tenggara Barat
51 22/02/13 Silvie 2172781010009 JNE Ciputat, Banten
50 22/02/13 Riska 2172781020008 JNE P. Bun, Kalimantan Tengah
49 20/02/13 Tryas 2163695220004 JNE Jakarta
48 19/02/13 Misbahuddin 2039128940002 JNE Balikpapan, Kalimantan Timur
47 19/02/13 Dini 2039128930003 JNE Cirebon, Jawa Barat
46 18/02/13 Isnati 2039128720000 JNE Mojokerto, Jawa Timur
45 18/02/13 Yeni 2039128710001 JNE Puncu, Kediri
44 18/02/13 Kusmiati 2039128700002 JNE Denpasar, Bali
43 18/02/13 Tryas 2039128690006 JNE Jakarta
42 18/02/13 Ervin 2039128680007 JNE Maros, Sulawesi Selatan
41 18/02/13 Martin 2187625230000 JNE Pontianak Barat, Kalimantan
40 16/02/13 Widya 2141785580009 JNE Jepara, Jawa Tengah
39 16/02/13 Suwandi 2141785570000 JNE Balikpapan, Kalimatan Timur
38 16/02/13 Indah 2141785560001 JNE Jakarta
37 14/02/13 Dian 2113229940007 JNE Telanaipura, Jambi
36 14/02/13 Sudrajat 2113229930008 JNE Karawang
35 12/02/13 Azizah 2188472690009 JNE Jakarta
34 12/02/13 Ahmad 2188472680000 JNE Pekanbaru, Riau
33 12/02/13 Rahmi 2188472670001 JNE Sunggal, Sumatera Utara
32 12/02/13 Triana 2188472660002 JNE Purwodadi, Jawa Tengah
31 08/02/13 Uli 2188470620008 JNE Bengkulu
30 07/02/13 Lucky 2187615320001 JNE Ende, NTT
29 05/02/13 Neng 2113222240005 JNE Bandung
28 04/02/13 Rina 2039121880008 JNE Bogor
27 31/01/13 Rina 2080283040007 JNE Bogor
26 31/01/13 Khalidi 2080283050006 JNE Pontianak, Kalimantan Barat
25 28/01/13 Faizal 2077843270004 JNE Pekanbaru
24 28/01/13 Nur 2077843260005 JNE Semarang, Jawa Tengah
23 28/01/13 Dian 2077843250006 JNE Jambi
22 25/01/13 Ira 2080276320000 JNE Tangerang
21 22/01/13 Zaidi 2120383150005 JNE Bolaang, Sulawesi
20 22/01/13 Neng 2120383160004 JNE Bandung
19 15/01/13 Ela 2086469160002 JNE Tangerang
18 14/01/13 Djuni 2086468230003 JNE Surabaya, Jatim
17 14/01/13 Susanti 2120376780004 JNE Lampung
16 11/01/13 Ria 2120375100001 JNE Jakarta
15 09/01/13 Nadiya 2068076560000 JNE Nunukan, Kalimantan Timur
14 09/01/13 Tanti 2068076550001 JNE Jakarta
13 09/01/13 Lina 2068076540002 JNE Jakarta
12 07/01/13 Shinta 2086463950005 JNE Bogor, Jawa Barat
11 07/01/13 Dian 2086463940006 JNE Makassar, Sulawesi Selatan
10 07/01/13 Nuripah 2086463930007 JNE Cirebon, Jawa Barat
9 04/01/13 Eva 2141919910009 JNE Balikpapan, Kalimantan Timur
8 02/01/13 Verdahany 2087832200004 JNE Jakarta
7 31/12/12 Silviana 2073192780003 JNE Pekanbaru, Sumatera Selatan
6 31/11/12 Ratna 2073192760005 JNE Serpong, Tangerang
5 31/12/12 Kartika 2073192750006 JNE Banda Aceh
4 31/12/12 Yuli 2073192740007 JNE Selebar, Bengkulu
3 28/12/12 Ambaririn 2073192170002 JNE Sidoardjo, Jawa Tengah
2 28/12/12 Anssatu 2073192180001 JNE Serpong, Tangerang
1 27/12/12 Ika 2086460220002 JNE Tahunan, Jepara

Incoming search terms:

  • ambaririn rahmawati
  • cek resi dpex ke singapor
Keranjang>>